Data for 11/02/2011

Time Sea-Level Adjusted Pressure Absolute Pressure Temperature Relative Humidity Dew Point Precipitation   
(mb) (inHg) (mb) (inHg) (C) (F) (%) (C) (F) (mm) (in)
00:01 1031 30.45 860 25.4 -3.9 25 85 -6.1 21.1 -91.5 -3.602
00:02 1031 30.45 860 25.4 -3.9 25.1 85 -6 21.1 -91.5 -3.602
00:03 1031 30.45 860 25.4 -3.9 25 85 -6.1 21 -91.5 -3.602
00:04 1031 30.45 860 25.4 -3.8 25.1 85 -6.1 21.1 -91.5 -3.602
00:05 1031 30.45 861 25.43 -3.8 25.1 85 -6.1 21.1 -91.5 -3.602
00:06 1031 30.45 860 25.4 -3.9 25.1 84 -6.1 21 -91.5 -3.602
00:07 1031 30.45 861 25.43 -3.9 25 84 -6.1 21 -91.5 -3.602
00:08 1031 30.45 861 25.43 -3.9 25 84 -6.2 20.9 -91.5 -3.602
00:09 1031 30.45 861 25.43 -4 24.8 85 -6.2 20.9 -91.5 -3.602
00:10 1031 30.45 861 25.43 -4.1 24.7 85 -6.2 20.8 -91.5 -3.602
00:11 1031 30.45 861 25.43 -4.1 24.6 85 -6.3 20.6 -91.5 -3.602
00:12 1031 30.45 861 25.43 -4.1 24.6 85 -6.3 20.7 -91.5 -3.602
00:13 1031 30.45 861 25.43 -4.2 24.5 85 -6.3 20.7 -91.6 -3.606
00:14 1031 30.45 861 25.43 -4.2 24.4 85 -6.5 20.4 -91.6 -3.606
00:15 1031 30.45 861 25.43 -4.4 24.2 85 -6.5 20.3 -91.6 -3.606
00:16 1031 30.45 861 25.43 -4.5 23.9 85 -6.6 20.1 -91.6 -3.606
00:17 1031 30.45 861 25.43 -4.7 23.6 86 -6.7 19.9 -91.6 -3.606
00:18 1031 30.45 861 25.43 -4.8 23.3 86 -6.9 19.6 -91.6 -3.606
00:19 1031 30.45 861 25.43 -5 23 87 -6.9 19.6 -91.6 -3.606
00:20 1031 30.45 861 25.43 -5.1 22.8 88 -6.9 19.7 -91.6 -3.606
00:21 1031 30.45 861 25.43 -5.1 22.8 88 -6.8 19.8 -91.6 -3.606
00:22 1031 30.45 861 25.43 -5.1 22.8 88 -6.8 19.7 -91.6 -3.606
00:23 1031 30.45 861 25.43 -5.3 22.4 83 -7.7 18.1 -91.7 -3.61
00:24 1031 30.45 861 25.43 -5.7 21.7 82 -8.3 17 -91.7 -3.61
00:25 1031 30.45 861 25.43 -6.3 20.7 80 -9.2 15.5 -91.7 -3.61
00:26 1031 30.45 861 25.43 -6.8 19.8 81 -9.5 14.9 -91.7 -3.61
00:27 1031 30.45 861 25.43 -7.3 18.8 80 -10.3 13.5 -91.8 -3.614
00:28 1032 30.47 861 25.43 -7.9 17.7 82 -10.4 13.3 -91.8 -3.614
00:29 1032 30.47 861 25.43 -8.2 17.3 89 -9.6 14.6 -91.8 -3.614
00:30 1032 30.47 861 25.43 -8 17.6 93 -9 15.8 -91.8 -3.614
00:31 1032 30.47 861 25.43 -7.8 18 93 -8.6 16.4 -91.8 -3.614
00:32 1032 30.47 861 25.43 -7.6 18.3 94 -8.4 16.8 -91.8 -3.614
00:33 1032 30.47 861 25.43 -7.4 18.8 95 -8 17.5 -91.8 -3.614
00:34 1032 30.47 861 25.43 -7.1 19.2 96 -7.7 18.1 -91.8 -3.614
00:35 1032 30.47 861 25.43 -6.9 19.6 96 -7.5 18.6 -91.8 -3.614
00:36 1032 30.47 861 25.43 -6.6 20.1 96 -7.2 19.1 -91.8 -3.614
00:37 1032 30.47 861 25.43 -6.4 20.4 96 -7 19.4 -91.8 -3.614
00:38 1032 30.47 861 25.43 -6.3 20.7 96 -6.8 19.7 -91.8 -3.614
00:39 1032 30.47 861 25.43 -6.1 21 96 -6.7 19.9 -91.8 -3.614
00:40 1032 30.47 861 25.43 -6 21.3 95 -6.6 20.1 -91.8 -3.614
00:41 1032 30.47 861 25.43 -5.9 21.4 95 -6.6 20.2 -91.8 -3.614
00:42 1032 30.47 861 25.43 -5.8 21.6 94 -6.5 20.3 -91.8 -3.614
00:43 1032 30.47 861 25.43 -5.7 21.8 94 -6.5 20.4 -91.8 -3.614
00:44 1032 30.47 861 25.43 -5.6 22 93 -6.5 20.3 -91.8 -3.614
00:45 1032 30.47 861 25.43 -5.5 22.1 93 -6.5 20.3 -91.8 -3.614
00:46 1032 30.47 861 25.43 -5.5 22.2 93 -6.5 20.3 -91.8 -3.614
00:47 1032 30.47 861 25.43 -5.4 22.3 92 -6.5 20.3 -91.8 -3.614
00:48 1032 30.47 861 25.43 -5.4 22.3 92 -6.5 20.3 -91.8 -3.614
00:49 1032 30.47 861 25.43 -5.3 22.5 92 -6.5 20.4 -91.8 -3.614
00:50 1032 30.47 861 25.43 -5.2 22.6 91 -6.5 20.4 -91.8 -3.614
00:51 1032 30.47 861 25.43 -5.2 22.7 91 -6.5 20.4 -91.8 -3.614
00:52 1032 30.47 861 25.43 -5.2 22.7 91 -6.5 20.3 -91.8 -3.614
00:53 1032 30.47 861 25.43 -5.1 22.8 90 -6.5 20.4 -91.8 -3.614
00:54 1032 30.47 861 25.43 -5 22.9 90 -6.5 20.3 -91.9 -3.618
00:55 1032 30.47 861 25.43 -5 22.9 87 -6.9 19.5 -91.9 -3.618
00:56 1032 30.47 861 25.43 -5.1 22.8 89 -6.7 20 -91.9 -3.618
00:57 1032 30.47 861 25.43 -5.1 22.9 89 -6.6 20.2 -91.9 -3.618
00:58 1032 30.47 861 25.43 -5.2 22.6 82 -7.9 17.8 -91.9 -3.618
00:59 1032 30.47 861 25.43 -5.7 21.8 85 -7.8 17.9 -91.9 -3.618
01:00 1032 30.47 861 25.43 -6 21.1 81 -8.7 16.3 -91.9 -3.618
01:01 1032 30.47 861 25.43 -6.4 20.5 88 -8 17.5 -91.9 -3.618
01:02 1032 30.47 861 25.43 -6.4 20.6 89 -7.9 17.7 -91.9 -3.618
01:03 1032 30.47 861 25.43 -6.5 20.4 87 -8.2 17.2 -91.9 -3.618
01:04 1032 30.47 861 25.43 -6.7 20 88 -8.3 17 -91.9 -3.618
01:05 1032 30.47 861 25.43 -6.7 19.9 90 -8.1 17.5 -92 -3.622
01:06 1032 30.47 861 25.43 -6.7 20 90 -8 17.6 -92 -3.622
01:07 1032 30.47 861 25.43 -6.8 19.8 88 -8.4 16.9 -92 -3.622
01:08 1032 30.47 861 25.43 -6.8 19.8 91 -8 17.5 -92 -3.622
01:09 1032 30.47 861 25.43 -6.8 19.8 90 -8.1 17.3 -92 -3.622
01:10 1032 30.47 861 25.43 -6.8 19.7 87 -8.6 16.5 -92 -3.622
01:11 1032 30.47 861 25.43 -6.8 19.7 91 -8.1 17.4 -92 -3.622
01:12 1032 30.47 861 25.43 -6.8 19.7 90 -8.2 17.2 -92 -3.622
01:13 1032 30.47 861 25.43 -7 19.5 86 -8.9 16 -92 -3.622
01:14 1032 30.47 861 25.43 -7.2 19 86 -9.2 15.5 -92 -3.622
01:15 1032 30.47 861 25.43 -7.5 18.6 88 -9.2 15.5 -92 -3.622
01:16 1032 30.47 861 25.43 -7.6 18.4 90 -9 15.8 -92 -3.622
01:17 1032 30.47 861 25.43 -7.6 18.3 88 -9.3 15.2 -92.1 -3.626
01:18 1032 30.47 861 25.43 -7.9 17.8 85 -10 13.9 -92.1 -3.626
01:19 1032 30.47 861 25.43 -8.2 17.3 88 -9.8 14.4 -92.1 -3.626
01:20 1032 30.47 861 25.43 -8 17.6 94 -8.8 16.1 -92.1 -3.626
01:21 1032 30.47 861 25.43 -7.7 18.2 93 -8.6 16.5 -92.1 -3.626
01:22 1032 30.47 861 25.43 -7.4 18.7 93 -8.3 17 -92.1 -3.626
01:23 1032 30.47 861 25.43 -7.1 19.2 92 -8.1 17.3 -92.1 -3.626
01:24 1032 30.47 861 25.43 -6.9 19.7 92 -7.9 17.7 -92.1 -3.626
01:25 1032 30.47 861 25.43 -6.8 19.8 89 -8.3 17 -92.1 -3.626
01:26 1032 30.47 861 25.43 -6.8 19.7 88 -8.4 16.8 -92.1 -3.626
01:27 1032 30.47 861 25.43 -6.8 19.8 89 -8.3 17.1 -92.1 -3.626
01:28 1032 30.47 861 25.43 -6.8 19.8 87 -8.6 16.4 -92.1 -3.626
01:29 1032 30.47 861 25.43 -6.9 19.6 88 -8.6 16.6 -92.2 -3.63
01:30 1032 30.47 861 25.43 -6.8 19.7 89 -8.3 17 -92.2 -3.63
01:31 1032 30.47 861 25.43 -6.7 19.9 89 -8.3 17.1 -92.2 -3.63
01:32 1032 30.47 861 25.43 -6.6 20 87 -8.5 16.7 -92.2 -3.63
01:33 1032 30.47 861 25.43 -6.7 20 87 -8.4 16.9 -92.2 -3.63
01:34 1032 30.47 861 25.43 -6.6 20.2 88 -8.3 17.1 -92.2 -3.63
01:35 1032 30.47 861 25.43 -6.5 20.3 87 -8.3 17 -92.2 -3.63
01:36 1032 30.47 861 25.43 -6.5 20.4 85 -8.6 16.5 -92.2 -3.63
01:37 1032 30.47 861 25.43 -6.5 20.3 84 -8.7 16.3 -92.2 -3.63
01:38 1032 30.47 861 25.43 -6.5 20.2 84 -8.7 16.3 -92.2 -3.63
01:39 1032 30.47 861 25.43 -6.5 20.3 84 -8.8 16.2 -92.2 -3.63
01:40 1032 30.47 861 25.43 -6.4 20.4 84 -8.8 16.2 -92.2 -3.63
01:41 1032 30.47 861 25.43 -6.4 20.4 82 -9 15.9 -92.2 -3.63
01:42 1032 30.47 861 25.43 -6.5 20.3 83 -9 15.8 -92.2 -3.63
01:43 1032 30.47 861 25.43 -6.5 20.2 83 -9 15.8 -92.2 -3.63
01:44 1032 30.47 861 25.43 -6.6 20.1 82 -9.2 15.4 -92.2 -3.63
01:45 1032 30.47 861 25.43 -6.8 19.8 82 -9.4 15.2 -92.3 -3.634
01:46 1032 30.47 861 25.43 -6.9 19.6 81 -9.6 14.7 -92.3 -3.634
01:47 1032 30.47 861 25.43 -7.1 19.3 81 -9.7 14.5 -92.3 -3.634
01:48 1032 30.47 861 25.43 -7.2 19 83 -9.7 14.6 -92.3 -3.634
01:49 1031 30.45 861 25.43 -7.3 18.8 84 -9.6 14.7 -92.3 -3.634
01:50 1031 30.45 861 25.43 -7.4 18.7 85 -9.6 14.8 -92.3 -3.634
01:51 1031 30.45 861 25.43 -7.4 18.7 84 -9.7 14.6 -92.3 -3.634
01:52 1031 30.45 861 25.43 -7.5 18.6 83 -9.9 14.3 -92.3 -3.634
01:53 1031 30.45 861 25.43 -7.6 18.3 83 -10.1 13.9 -92.3 -3.634
01:54 1031 30.45 861 25.43 -7.8 18 82 -10.3 13.5 -92.3 -3.634
01:55 1031 30.45 861 25.43 -8.1 17.5 82 -10.6 12.9 -92.3 -3.634
01:56 1031 30.45 861 25.43 -8.3 17 84 -10.6 12.9 -92.3 -3.634
01:57 1031 30.45 861 25.43 -8.4 16.9 86 -10.3 13.4 -92.4 -3.638
01:58 1031 30.45 861 25.43 -8.4 16.9 86 -10.3 13.4 -92.4 -3.638
01:59 1031 30.45 861 25.43 -8.4 16.9 86 -10.3 13.4 -92.4 -3.638
02:00 1031 30.45 861 25.43 -8.3 17 87 -10.1 13.8 -92.4 -3.638
02:01 1031 30.45 861 25.43 -8.2 17.3 87 -9.9 14.1 -92.4 -3.638
02:02 1031 30.45 861 25.43 -8.1 17.5 86 -10 13.9 -92.4 -3.638
02:03 1031 30.45 861 25.43 -8 17.6 85 -10 13.9 -92.4 -3.638
02:04 1031 30.45 861 25.43 -8 17.6 85 -10.1 13.9 -92.4 -3.638
02:05 1031 30.45 861 25.43 -8 17.6 85 -10.2 13.7 -92.4 -3.638
02:06 1031 30.45 861 25.43 -8.1 17.5 85 -10.2 13.7 -92.4 -3.638
02:07 1031 30.45 861 25.43 -8.2 17.3 84 -10.5 13.1 -92.4 -3.638
02:08 1031 30.45 861 25.43 -8.4 16.9 83 -10.7 12.7 -92.4 -3.638
02:09 1031 30.45 861 25.43 -8.5 16.7 84 -10.7 12.7 -92.4 -3.638
02:10 1031 30.45 861 25.43 -8.6 16.5 84 -10.8 12.5 -92.4 -3.638
02:11 1031 30.45 861 25.43 -8.8 16.1 84 -11.1 12 -92.4 -3.638
02:12 1031 30.45 861 25.43 -8.9 16 85 -10.9 12.3 -92.5 -3.642
02:13 1031 30.45 861 25.43 -8.9 15.9 85 -11 12.3 -92.5 -3.642
02:14 1031 30.45 861 25.43 -9 15.9 85 -11 12.3 -92.5 -3.642
02:15 1031 30.45 861 25.43 -9 15.8 85 -11.2 11.9 -92.5 -3.642
02:16 1031 30.45 861 25.43 -9.1 15.7 86 -11 12.2 -92.5 -3.642
02:17 1031 30.45 861 25.43 -9.1 15.6 84 -11.4 11.6 -92.5 -3.642
02:18 1031 30.45 861 25.43 -9.3 15.4 85 -11.3 11.7 -92.5 -3.642
02:19 1031 30.45 861 25.43 -9.3 15.3 85 -11.3 11.7 -92.5 -3.642
02:20 1031 30.45 861 25.43 -9.3 15.3 87 -11.1 12 -92.5 -3.642
02:21 1031 30.45 861 25.43 -9.3 15.4 85 -11.3 11.7 -92.5 -3.642
02:22 1031 30.45 861 25.43 -9.3 15.3 85 -11.3 11.6 -92.5 -3.642
02:23 1031 30.45 861 25.43 -9.2 15.4 87 -11 12.3 -92.5 -3.642
02:24 1031 30.45 861 25.43 -9.1 15.6 86 -11.1 12.1 -92.5 -3.642
02:25 1031 30.45 861 25.43 -9.1 15.7 86 -11 12.2 -92.5 -3.642
02:26 1031 30.45 861 25.43 -9 15.8 85 -11.1 12 -92.5 -3.642
02:27 1031 30.45 861 25.43 -9.1 15.7 84 -11.4 11.5 -92.5 -3.642
02:28 1031 30.45 861 25.43 -9.2 15.5 85 -11.3 11.7 -92.6 -3.646
02:29 1031 30.45 861 25.43 -9.1 15.5 86 -11 12.2 -92.6 -3.646
02:30 1031 30.45 861 25.43 -9.1 15.6 86 -11.1 12 -92.6 -3.646
02:31 1031 30.45 861 25.43 -9 15.9 86 -10.8 12.5 -92.6 -3.646
02:32 1031 30.45 861 25.43 -8.9 16 86 -10.9 12.4 -92.6 -3.646
02:33 1031 30.45 861 25.43 -8.8 16.2 85 -10.9 12.5 -92.6 -3.646
02:34 1031 30.45 861 25.43 -8.7 16.4 86 -10.6 13 -92.6 -3.646
02:35 1031 30.45 861 25.43 -8.5 16.7 85 -10.6 12.9 -92.6 -3.646
02:36 1031 30.45 861 25.43 -8.5 16.7 86 -10.4 13.3 -92.6 -3.646
02:37 1031 30.45 861 25.43 -8.4 16.8 84 -10.7 12.8 -92.6 -3.646
02:38 1031 30.45 861 25.43 -8.7 16.4 82 -11.2 11.8 -92.6 -3.646
02:39 1031 30.45 861 25.43 -8.8 16.1 86 -10.8 12.6 -92.6 -3.646
02:40 1031 30.45 861 25.43 -8.8 16.2 85 -10.9 12.5 -92.6 -3.646
02:41 1031 30.45 861 25.43 -8.9 16 84 -11.1 12.1 -92.6 -3.646
02:42 1032 30.47 861 25.43 -9 15.8 87 -10.8 12.6 -92.6 -3.646
02:43 1032 30.47 861 25.43 -9 15.8 84 -11.2 11.8 -92.6 -3.646
02:44 1032 30.47 861 25.43 -9.2 15.5 85 -11.2 11.8 -92.6 -3.646
02:45 1032 30.47 861 25.43 -9.2 15.5 86 -11.2 11.9 -92.6 -3.646
02:46 1032 30.47 861 25.43 -9.1 15.6 87 -10.9 12.4 -92.6 -3.646
02:47 1032 30.47 861 25.43 -9.1 15.6 86 -11.1 12 -92.6 -3.646
02:48 1032 30.47 861 25.43 -9.2 15.5 87 -11 12.2 -92.6 -3.646
02:49 1031 30.45 861 25.43 -9.1 15.6 87 -10.9 12.4 -92.6 -3.646
02:50 1032 30.47 861 25.43 -9.1 15.7 86 -10.9 12.3 -92.6 -3.646
02:51 1032 30.47 861 25.43 -9 15.9 87 -10.8 12.6 -92.7 -3.65
02:52 1032 30.47 861 25.43 -8.9 15.9 87 -10.8 12.6 -92.7 -3.65
02:53 1032 30.47 861 25.43 -8.9 16.1 87 -10.6 12.9 -92.7 -3.65
02:54 1031 30.45 861 25.43 -8.7 16.4 88 -10.3 13.4 -92.7 -3.65
02:55 1031 30.45 861 25.43 -8.5 16.8 88 -10.2 13.7 -92.7 -3.65
02:56 1032 30.47 861 25.43 -8.3 17 86 -10.2 13.7 -92.7 -3.65
02:57 1032 30.47 861 25.43 -8.3 17 82 -10.8 12.6 -92.7 -3.65
02:58 1032 30.47 861 25.43 -8.5 16.8 84 -10.7 12.8 -92.7 -3.65
02:59 1032 30.47 861 25.43 -8.6 16.6 82 -11.1 12.1 -92.7 -3.65
03:00 1032 30.47 861 25.43 -8.8 16.2 84 -11 12.2 -92.7 -3.65
03:01 1032 30.47 861 25.43 -8.8 16.1 83 -11.1 12 -92.7 -3.65
03:02 1032 30.47 861 25.43 -9 15.9 85 -11 12.2 -92.7 -3.65
03:03 1032 30.47 861 25.43 -8.8 16.1 86 -10.7 12.7 -92.7 -3.65
03:04 1032 30.47 861 25.43 -8.6 16.4 88 -10.3 13.5 -92.7 -3.65
03:05 1032 30.47 861 25.43 -8.5 16.8 85 -10.6 13 -92.7 -3.65
03:06 1032 30.47 861 25.43 -8.6 16.6 82 -11.1 12.1 -92.7 -3.65
03:07 1032 30.47 861 25.43 -8.8 16.2 79 -11.7 10.9 -92.7 -3.65
03:08 1032 30.47 861 25.43 -9.1 15.7 80 -11.9 10.5 -92.7 -3.65
03:09 1032 30.47 861 25.43 -9.4 15.1 84 -11.7 11 -92.7 -3.65
03:10 1032 30.47 861 25.43 -9.5 14.9 85 -11.5 11.2 -92.7 -3.65
03:11 1032 30.47 861 25.43 -9.5 14.9 88 -11.2 11.8 -92.7 -3.65
03:12 1031 30.45 861 25.43 -9.3 15.3 90 -10.7 12.8 -92.7 -3.65
03:13 1032 30.47 861 25.43 -9 15.8 90 -10.4 13.2 -92.7 -3.65
03:14 1032 30.47 861 25.43 -8.8 16.2 88 -10.4 13.2 -92.7 -3.65
03:15 1032 30.47 861 25.43 -8.6 16.5 86 -10.6 12.9 -92.8 -3.654
03:16 1032 30.47 861 25.43 -8.7 16.4 84 -10.8 12.5 -92.8 -3.654
03:17 1031 30.45 861 25.43 -8.7 16.3 84 -10.9 12.4 -92.7 -3.65
03:18 1031 30.45 861 25.43 -8.8 16.2 85 -10.8 12.5 -92.7 -3.65
03:19 1031 30.45 861 25.43 -8.8 16.2 86 -10.7 12.7 -92.7 -3.65
03:20 1031 30.45 861 25.43 -8.8 16.3 86 -10.7 12.8 -92.8 -3.654
03:21 1031 30.45 861 25.43 -8.7 16.4 86 -10.6 13 -92.8 -3.654
03:22 1031 30.45 861 25.43 -8.7 16.4 83 -11.1 12 -92.8 -3.654
03:23 1031 30.45 861 25.43 -8.9 16.1 83 -11.2 11.9 -92.8 -3.654
03:24 1031 30.45 861 25.43 -9.1 15.6 83 -11.5 11.3 -92.8 -3.654
03:25 1031 30.45 861 25.43 -9.2 15.5 86 -11 12.2 -92.8 -3.654
03:26 1031 30.45 861 25.43 -9.1 15.6 87 -10.9 12.4 -92.8 -3.654
03:27 1031 30.45 861 25.43 -9.1 15.6 83 -11.4 11.4 -92.8 -3.654
03:28 1031 30.45 861 25.43 -9.3 15.2 85 -11.3 11.6 -92.8 -3.654
03:29 1031 30.45 861 25.43 -9.4 15 84 -11.7 11 -92.8 -3.654
03:30 1031 30.45 861 25.43 -9.5 14.9 87 -11.2 11.8 -92.8 -3.654
03:31 1031 30.45 861 25.43 -9.4 15.1 86 -11.4 11.5 -92.8 -3.654
03:32 1031 30.45 861 25.43 -9.5 14.9 85 -11.5 11.3 -92.8 -3.654
03:33 1031 30.45 861 25.43 -9.4 15.1 90 -10.8 12.5 -92.8 -3.654
03:34 1031 30.45 861 25.43 -9.1 15.6 86 -11 12.1 -92.8 -3.654
03:35 1031 30.45 861 25.43 -9.2 15.5 85 -11.3 11.7 -92.8 -3.654
03:36 1031 30.45 861 25.43 -9.2 15.4 85 -11.3 11.7 -92.8 -3.654
03:37 1031 30.45 861 25.43 -9.3 15.2 84 -11.6 11.2 -92.8 -3.654
03:38 1031 30.45 861 25.43 -9.5 14.9 83 -11.8 10.8 -92.8 -3.654
03:39 1031 30.45 861 25.43 -9.7 14.6 85 -11.7 10.9 -92.8 -3.654
03:40 1031 30.45 860 25.4 -9.8 14.3 83 -12.2 10 -92.8 -3.654
03:41 1031 30.45 861 25.43 -10.2 13.7 85 -12.2 10 -92.8 -3.654
03:42 1031 30.45 861 25.43 -10.3 13.5 85 -12.3 9.9 -92.8 -3.654
03:43 1031 30.45 861 25.43 -10.5 13.1 84 -12.7 9.2 -92.8 -3.654
03:44 1031 30.45 861 25.43 -10.7 12.7 85 -12.8 9 -92.8 -3.654
03:45 1031 30.45 861 25.43 -10.9 12.5 86 -12.8 8.9 -92.9 -3.657
03:46 1031 30.45 861 25.43 -10.9 12.4 88 -12.4 9.6 -92.9 -3.657
03:47 1031 30.45 861 25.43 -10.7 12.7 90 -12 10.4 -92.9 -3.657
03:48 1031 30.45 861 25.43 -10.5 13.1 90 -11.8 10.7 -92.9 -3.657
03:49 1031 30.45 861 25.43 -10.3 13.4 90 -11.7 10.9 -92.9 -3.657
03:50 1031 30.45 861 25.43 -10.2 13.6 87 -12 10.4 -92.9 -3.657
03:51 1031 30.45 861 25.43 -10.3 13.5 88 -12 10.4 -92.9 -3.657
03:52 1031 30.45 861 25.43 -10.3 13.5 87 -12.1 10.2 -92.9 -3.657
03:53 1031 30.45 861 25.43 -10.3 13.5 87 -12.1 10.2 -92.9 -3.657
03:54 1031 30.45 861 25.43 -10.3 13.5 88 -11.9 10.6 -92.9 -3.657
03:55 1031 30.45 861 25.43 -10.2 13.7 87 -12 10.4 -92.9 -3.657
03:56 1031 30.45 861 25.43 -10.3 13.5 85 -12.4 9.7 -92.9 -3.657
03:57 1031 30.45 861 25.43 -10.5 13.2 85 -12.6 9.4 -92.9 -3.657
03:58 1031 30.45 861 25.43 -10.5 13 85 -12.6 9.4 -92.9 -3.657
03:59 1031 30.45 861 25.43 -10.6 12.9 89 -12.1 10.3 -92.9 -3.657
04:00 1031 30.45 861 25.43 -10.4 13.2 89 -11.9 10.7 -92.9 -3.657
04:01 1031 30.45 861 25.43 -10.4 13.3 88 -12 10.5 -92.9 -3.657
04:02 1031 30.45 861 25.43 -10.2 13.7 89 -11.6 11 -92.9 -3.657
04:03 1031 30.45 861 25.43 -10.1 13.9 89 -11.5 11.3 -92.9 -3.657
04:04 1031 30.45 861 25.43 -10 14 88 -11.7 11 -93 -3.661
04:05 1031 30.45 861 25.43 -9.9 14.2 89 -11.4 11.5 -93 -3.661
04:06 1031 30.45 861 25.43 -9.8 14.5 88 -11.4 11.5 -93 -3.661
04:07 1031 30.45 861 25.43 -9.9 14.3 84 -12 10.4 -93 -3.661
04:08 1031 30.45 861 25.43 -10.1 13.9 86 -11.9 10.6 -93 -3.661
04:09 1031 30.45 861 25.43 -9.9 14.1 89 -11.4 11.5 -93 -3.661
04:10 1031 30.45 861 25.43 -9.8 14.3 86 -11.8 10.7 -93 -3.661
04:11 1031 30.45 861 25.43 -9.9 14.1 86 -11.9 10.6 -93 -3.661
04:12 1032 30.47 861 25.43 -10 14.1 85 -12 10.4 -93 -3.661
04:13 1032 30.47 861 25.43 -10 14.1 88 -11.5 11.3 -93 -3.661
04:14 1032 30.47 861 25.43 -9.7 14.6 89 -11.1 11.9 -93 -3.661
04:15 1032 30.47 861 25.43 -9.5 14.9 88 -11.2 11.9 -93 -3.661
04:16 1032 30.47 861 25.43 -9.4 15.1 88 -11 12.2 -93 -3.661
04:17 1032 30.47 861 25.43 -9.2 15.4 87 -11 12.1 -93 -3.661
04:18 1032 30.47 861 25.43 -9.2 15.4 85 -11.3 11.7 -93 -3.661
04:19 1032 30.47 861 25.43 -9.2 15.4 85 -11.3 11.7 -93 -3.661
04:20 1032 30.47 861 25.43 -9.2 15.4 85 -11.2 11.8 -93 -3.661
04:21 1032 30.47 861 25.43 -9.2 15.5 86 -11.1 12.1 -93 -3.661
04:22 1032 30.47 861 25.43 -9.1 15.7 85 -11.2 11.8 -93 -3.661
04:23 1032 30.47 861 25.43 -9.2 15.5 84 -11.4 11.5 -93 -3.661
04:24 1032 30.47 861 25.43 -9.2 15.4 85 -11.3 11.7 -93 -3.661
04:25 1032 30.47 861 25.43 -9.2 15.5 85 -11.3 11.6 -93 -3.661
04:26 1032 30.47 861 25.43 -9.1 15.6 86 -11 12.2 -93 -3.661
04:27 1032 30.47 861 25.43 -9 15.7 85 -11.1 12 -93 -3.661
04:28 1032 30.47 861 25.43 -8.9 15.9 85 -11 12.2 -93 -3.661
04:29 1032 30.47 861 25.43 -8.8 16.2 86 -10.7 12.7 -93 -3.661
04:30 1032 30.47 861 25.43 -8.5 16.7 85 -10.6 13 -93 -3.661
04:31 1032 30.47 861 25.43 -8.3 17 85 -10.5 13.1 -93 -3.661
04:32 1032 30.47 861 25.43 -8.2 17.2 83 -10.6 12.9 -93 -3.661
04:33 1032 30.47 861 25.43 -8.2 17.3 81 -10.9 12.4 -93 -3.661
04:34 1032 30.47 861 25.43 -8.2 17.2 81 -10.9 12.4 -93 -3.661
04:35 1032 30.47 861 25.43 -8.3 17.1 82 -10.9 12.4 -93 -3.661
04:36 1032 30.47 861 25.43 -8.3 17 82 -10.9 12.4 -93 -3.661
04:37 1032 30.47 861 25.43 -8.4 17 82 -10.9 12.3 -93 -3.661
04:38 1032 30.47 861 25.43 -8.4 17 83 -10.8 12.6 -93 -3.661
04:39 1032 30.47 861 25.43 -8.3 17.1 82 -10.8 12.6 -93 -3.661
04:40 1032 30.47 861 25.43 -8.2 17.2 81 -10.9 12.5 -93 -3.661
04:41 1032 30.47 861 25.43 -8.2 17.3 81 -10.8 12.5 -93 -3.661
04:42 1032 30.47 861 25.43 -8.1 17.4 80 -10.9 12.3 -93 -3.661
04:43 1032 30.47 861 25.43 -8.1 17.4 79 -11 12.1 -93 -3.661
04:44 1032 30.47 861 25.43 -8.1 17.5 79 -11.1 12.1 -93 -3.661
04:45 1032 30.47 861 25.43 -8.1 17.5 79 -11.2 11.9 -93 -3.661
04:46 1032 30.47 861 25.43 -8.2 17.3 78 -11.3 11.7 -93 -3.661
04:47 1032 30.47 861 25.43 -8.2 17.2 78 -11.3 11.6 -93 -3.661
04:48 1032 30.47 861 25.43 -8.3 17 78 -11.4 11.4 -93 -3.661
04:49 1032 30.47 861 25.43 -8.5 16.8 78 -11.6 11 -93 -3.661
04:50 1032 30.47 861 25.43 -8.7 16.4 79 -11.7 10.9 -93 -3.661
04:51 1032 30.47 861 25.43 -8.8 16.1 79 -11.8 10.7 -93 -3.661
04:52 1032 30.47 861 25.43 -9 15.8 79 -12 10.4 -93 -3.661
04:53 1032 30.47 861 25.43 -9.2 15.5 81 -11.9 10.5 -93 -3.661
04:54 1032 30.47 861 25.43 -9.2 15.5 84 -11.5 11.4 -93 -3.661
04:55 1032 30.47 861 25.43 -9 15.7 82 -11.5 11.2 -93 -3.661
04:56 1032 30.47 861 25.43 -9 15.8 82 -11.6 11.1 -93 -3.661
04:57 1032 30.47 861 25.43 -9 15.8 82 -11.5 11.3 -93 -3.661
04:58 1032 30.47 861 25.43 -8.9 16 79 -11.8 10.7 -93 -3.661
04:59 1032 30.47 861 25.43 -9 15.9 80 -11.8 10.7 -93 -3.661
05:00 1032 30.47 861 25.43 -9 15.8 78 -12.2 10.1 -93 -3.661
05:01 1032 30.47 861 25.43 -9.2 15.5 82 -11.7 10.9 -93 -3.661
05:02 1032 30.47 861 25.43 -9.2 15.5 81 -11.8 10.7 -93 -3.661
05:03 1032 30.47 861 25.43 -9.2 15.5 81 -11.9 10.5 -93 -3.661
05:04 1032 30.47 861 25.43 -9.2 15.4 83 -11.6 11 -93 -3.661
05:05 1032 30.47 861 25.43 -9.2 15.5 80 -12 10.4 -93 -3.661
05:06 1032 30.47 861 25.43 -9.3 15.3 81 -12 10.3 -93 -3.661
05:07 1032 30.47 861 25.43 -9.5 15 78 -12.5 9.4 -93 -3.661
05:08 1032 30.47 861 25.43 -9.6 14.7 82 -12.1 10.3 -93.1 -3.665
05:09 1032 30.47 861 25.43 -9.6 14.7 81 -12.2 10 -93.1 -3.665
05:10 1032 30.47 861 25.43 -9.6 14.7 82 -12.1 10.2 -93.1 -3.665
05:11 1032 30.47 861 25.43 -9.6 14.7 83 -12 10.4 -93.1 -3.665
05:12 1032 30.47 861 25.43 -9.5 15 83 -11.9 10.7 -93.1 -3.665
05:13 1032 30.47 861 25.43 -9.5 14.9 79 -12.5 9.4 -93.1 -3.665
05:14 1031 30.45 861 25.43 -9.8 14.3 80 -12.6 9.3 -93.1 -3.665
05:15 1031 30.45 861 25.43 -9.9 14.2 83 -12.3 9.9 -93.1 -3.665
05:16 1031 30.45 861 25.43 -10 14.1 83 -12.4 9.7 -93.1 -3.665
05:17 1031 30.45 861 25.43 -10 13.9 82 -12.5 9.5 -93.1 -3.665
05:18 1031 30.45 861 25.43 -10.2 13.6 84 -12.5 9.5 -93.1 -3.665
05:19 1031 30.45 861 25.43 -10.3 13.4 82 -12.8 9 -93.1 -3.665
05:20 1031 30.45 861 25.43 -10.3 13.5 86 -12.2 10 -93.1 -3.665
05:21 1031 30.45 861 25.43 -10.2 13.7 85 -12.2 10 -93.1 -3.665
05:22 1031 30.45 861 25.43 -10.1 13.8 83 -12.5 9.5 -93.1 -3.665
05:23 1031 30.45 861 25.43 -10.2 13.7 83 -12.5 9.5 -93.1 -3.665
05:24 1031 30.45 861 25.43 -10.1 13.8 86 -12 10.4 -93.1 -3.665
05:25 1031 30.45 861 25.43 -9.9 14.3 84 -12 10.3 -93.1 -3.665
05:26 1031 30.45 861 25.43 -9.8 14.4 83 -12.1 10.2 -93.1 -3.665
05:27 1031 30.45 861 25.43 -9.8 14.4 81 -12.4 9.7 -93.1 -3.665
05:28 1031 30.45 861 25.43 -9.9 14.2 83 -12.3 9.9 -93.1 -3.665
05:29 1031 30.45 861 25.43 -9.9 14.1 81 -12.6 9.4 -93.1 -3.665
05:30 1031 30.45 861 25.43 -10 13.9 83 -12.4 9.7 -93.1 -3.665
05:31 1031 30.45 861 25.43 -10 14.1 85 -12 10.4 -93.1 -3.665
05:32 1031 30.45 861 25.43 -9.9 14.3 83 -12.2 10.1 -93.1 -3.665
05:33 1031 30.45 861 25.43 -9.9 14.2 82 -12.4 9.7 -93.1 -3.665
05:34 1031 30.45 861 25.43 -10 13.9 81 -12.6 9.3 -93.1 -3.665
05:35 1031 30.45 861 25.43 -10.2 13.7 81 -12.9 8.7 -93.1 -3.665
05:36 1031 30.45 861 25.43 -10.4 13.4 82 -12.9 8.9 -93.1 -3.665
05:37 1031 30.45 861 25.43 -10.4 13.4 84 -12.6 9.4 -93.1 -3.665
05:38 1031 30.45 861 25.43 -10.3 13.4 84 -12.5 9.5 -93.1 -3.665
05:39 1031 30.45 861 25.43 -10.3 13.5 85 -12.3 9.9 -93.1 -3.665
05:40 1031 30.45 860 25.4 -10.1 13.8 85 -12.1 10.2 -93.1 -3.665
05:41 1031 30.45 860 25.4 -9.9 14.1 84 -12.1 10.3 -93.1 -3.665
05:42 1031 30.45 860 25.4 -9.8 14.4 84 -12 10.4 -93.1 -3.665
05:43 1031 30.45 860 25.4 -9.6 14.7 83 -11.9 10.5 -93.1 -3.665
05:44 1031 30.45 861 25.43 -9.5 14.9 82 -12 10.4 -93.1 -3.665
05:45 1031 30.45 861 25.43 -9.4 15.1 82 -11.9 10.6 -93.1 -3.665
05:46 1031 30.45 861 25.43 -9.3 15.3 82 -11.8 10.7 -93.1 -3.665
05:47 1031 30.45 861 25.43 -9.2 15.4 82 -11.8 10.7 -93.1 -3.665
05:48 1031 30.45 861 25.43 -9.1 15.6 81 -11.8 10.8 -93.1 -3.665
05:49 1031 30.45 861 25.43 -9 15.9 81 -11.6 11.1 -93.1 -3.665
05:50 1031 30.45 861 25.43 -9 15.9 81 -11.6 11.1 -93.1 -3.665
05:51 1031 30.45 861 25.43 -9 15.9 81 -11.7 10.9 -93.1 -3.665
05:52 1031 30.45 861 25.43 -9 15.9 81 -11.6 11.1 -93.1 -3.665
05:53 1032 30.47 861 25.43 -8.9 16 81 -11.5 11.2 -93.1 -3.665
05:54 1031 30.45 861 25.43 -8.9 16.1 80 -11.7 11 -93.1 -3.665
05:55 1031 30.45 861 25.43 -8.9 16 81 -11.6 11.1 -93.1 -3.665
05:56 1032 30.47 861 25.43 -8.8 16.1 80 -11.6 11.1 -93.1 -3.665
05:57 1031 30.45 861 25.43 -8.8 16.2 81 -11.5 11.2 -93.1 -3.665
05:58 1031 30.45 861 25.43 -8.8 16.2 81 -11.6 11.2 -93.1 -3.665
05:59 1032 30.47 861 25.43 -8.8 16.2 80 -11.6 11.1 -93.1 -3.665
06:00 1032 30.47 861 25.43 -8.8 16.1 81 -11.5 11.4 -93.1 -3.665
06:01 1032 30.47 861 25.43 -8.7 16.3 81 -11.4 11.4 -93.1 -3.665
06:02 1032 30.47 861 25.43 -8.7 16.4 81 -11.4 11.5 -93.1 -3.665
06:03 1032 30.47 861 25.43 -8.6 16.5 80 -11.4 11.4 -93.1 -3.665
06:04 1032 30.47 861 25.43 -8.7 16.4 80 -11.6 11.2 -93.1 -3.665
06:05 1032 30.47 861 25.43 -8.8 16.1 79 -11.8 10.8 -93.1 -3.665
06:06 1032 30.47 861 25.43 -9 15.8 81 -11.6 11.1 -93.1 -3.665
06:07 1032 30.47 861 25.43 -9 15.8 82 -11.5 11.2 -93.1 -3.665
06:08 1032 30.47 861 25.43 -9.1 15.7 80 -11.9 10.5 -93.1 -3.665
06:09 1032 30.47 861 25.43 -9.2 15.4 80 -12.1 10.3 -93.1 -3.665
06:10 1032 30.47 861 25.43 -9.4 15.2 83 -11.7 10.9 -93.1 -3.665
06:11 1032 30.47 861 25.43 -9.3 15.2 84 -11.6 11.2 -93.1 -3.665
06:12 1032 30.47 861 25.43 -9.3 15.3 84 -11.5 11.3 -93.1 -3.665
06:13 1032 30.47 861 25.43 -9.1 15.6 84 -11.3 11.6 -93.1 -3.665
06:14 1032 30.47 861 25.43 -8.9 15.9 84 -11.2 11.8 -93.1 -3.665
06:15 1032 30.47 861 25.43 -8.7 16.3 82 -11.2 11.8 -93.1 -3.665
06:16 1032 30.47 861 25.43 -8.5 16.7 81 -11.2 11.8 -93.1 -3.665
06:17 1032 30.47 861 25.43 -8.4 16.8 79 -11.4 11.5 -93.1 -3.665
06:18 1032 30.47 861 25.43 -8.5 16.8 80 -11.3 11.6 -93.1 -3.665
06:19 1032 30.47 861 25.43 -8.5 16.8 80 -11.4 11.6 -93.1 -3.665
06:20 1032 30.47 861 25.43 -8.4 16.9 79 -11.5 11.4 -93.1 -3.665
06:21 1032 30.47 861 25.43 -8.4 16.9 79 -11.4 11.4 -93.1 -3.665
06:22 1032 30.47 861 25.43 -8.3 17 79 -11.4 11.5 -93.1 -3.665
06:23 1032 30.47 861 25.43 -8.2 17.2 79 -11.3 11.7 -93.1 -3.665
06:24 1032 30.47 861 25.43 -8.1 17.4 78 -11.3 11.6 -93.1 -3.665
06:25 1032 30.47 861 25.43 -8.1 17.5 78 -11.3 11.7 -93.1 -3.665
06:26 1032 30.47 861 25.43 -8 17.7 77 -11.3 11.6 -93.1 -3.665
06:27 1032 30.47 861 25.43 -7.9 17.7 77 -11.4 11.5 -93.1 -3.665
06:28 1032 30.47 861 25.43 -8 17.6 77 -11.4 11.5 -93.1 -3.665
06:29 1032 30.47 861 25.43 -8.1 17.4 76 -11.6 11.1 -93.1 -3.665
06:30 1032 30.47 861 25.43 -8.2 17.2 77 -11.6 11.2 -93.1 -3.665
06:31 1032 30.47 861 25.43 -8.3 17 77 -11.7 11 -93.1 -3.665
06:32 1032 30.47 861 25.43 -8.4 16.8 78 -11.6 11.1 -93.1 -3.665
06:33 1032 30.47 861 25.43 -8.6 16.6 78 -11.7 11 -93.1 -3.665
06:34 1032 30.47 861 25.43 -8.7 16.4 79 -11.6 11.1 -93.1 -3.665
06:35 1032 30.47 861 25.43 -8.7 16.4 78 -11.8 10.8 -93.1 -3.665
06:36 1032 30.47 861 25.43 -8.7 16.3 80 -11.6 11.1 -93.1 -3.665
06:37 1032 30.47 861 25.43 -8.6 16.5 79 -11.6 11.1 -93.1 -3.665
06:38 1032 30.47 861 25.43 -8.5 16.7 80 -11.4 11.5 -93.1 -3.665
06:39 1032 30.47 861 25.43 -8.4 17 78 -11.5 11.3 -93.1 -3.665
06:40 1032 30.47 861 25.43 -8.3 17.1 78 -11.5 11.2 -93.1 -3.665
06:41 1032 30.47 861 25.43 -8.3 17 76 -11.8 10.8 -93.1 -3.665
06:42 1032 30.47 861 25.43 -8.3 17 78 -11.5 11.3 -93.1 -3.665
06:43 1032 30.47 861 25.43 -8.3 17 77 -11.7 10.9 -93.1 -3.665
06:44 1032 30.47 861 25.43 -8.4 16.9 78 -11.6 11.1 -93.1 -3.665
06:45 1032 30.47 861 25.43 -8.4 16.9 77 -11.7 11 -93.1 -3.665
06:46 1032 30.47 861 25.43 -8.5 16.7 77 -11.9 10.6 -93.1 -3.665
06:47 1032 30.47 861 25.43 -8.6 16.6 78 -11.8 10.8 -93.1 -3.665
06:48 1032 30.47 861 25.43 -8.6 16.5 79 -11.7 11 -93.1 -3.665
06:49 1032 30.47 861 25.43 -8.6 16.5 78 -11.8 10.8 -93.1 -3.665
06:50 1032 30.47 861 25.43 -8.6 16.4 78 -11.8 10.7 -93.1 -3.665
06:51 1032 30.47 861 25.43 -8.7 16.4 79 -11.6 11.1 -93.1 -3.665
06:52 1032 30.47 861 25.43 -8.6 16.5 79 -11.7 11 -93.1 -3.665
06:53 1032 30.47 861 25.43 -8.6 16.6 79 -11.6 11.1 -93.1 -3.665
06:54 1032 30.47 861 25.43 -8.5 16.8 79 -11.5 11.2 -93.1 -3.665
06:55 1032 30.47 861 25.43 -8.4 16.8 78 -11.6 11.2 -93.1 -3.665
06:56 1032 30.47 861 25.43 -8.4 16.9 78 -11.6 11 -93.1 -3.665
06:57 1032 30.47 861 25.43 -8.4 16.8 78 -11.6 11.1 -93.1 -3.665
06:58 1032 30.47 861 25.43 -8.4 16.9 78 -11.5 11.2 -93.1 -3.665
06:59 1032 30.47 861 25.43 -8.4 16.9 78 -11.5 11.2 -93.1 -3.665
07:00 1032 30.47 861 25.43 -8.4 17 78 -11.6 11.2 -93.1 -3.665
07:01 1032 30.47 861 25.43 -8.4 16.9 78 -11.6 11.1 -93.1 -3.665
07:02 1032 30.47 861 25.43 -8.4 16.9 78 -11.5 11.3 -93.1 -3.665
07:03 1032 30.47 861 25.43 -8.4 17 78 -11.6 11.2 -93.1 -3.665
07:04 1032 30.47 861 25.43 -8.4 17 78 -11.5 11.3 -93.1 -3.665
07:05 1032 30.47 861 25.43 -8.3 17.1 78 -11.5 11.3 -93.1 -3.665
07:06 1032 30.47 861 25.43 -8.3 17.1 78 -11.6 11.2 -93.1 -3.665
07:07 1032 30.47 861 25.43 -8.3 17.1 77 -11.6 11.1 -93.1 -3.665
07:08 1032 30.47 861 25.43 -8.3 17.1 77 -11.6 11.2 -93.1 -3.665
07:09 1032 30.47 861 25.43 -8.3 17 78 -11.5 11.3 -93.1 -3.665
07:10 1032 30.47 861 25.43 -8.4 17 78 -11.6 11.2 -93.1 -3.665
07:11 1032 30.47 861 25.43 -8.4 16.9 78 -11.6 11.2 -93.1 -3.665
07:12 1032 30.47 861 25.43 -8.5 16.8 78 -11.6 11.1 -93.1 -3.665
07:13 1032 30.47 861 25.43 -8.5 16.6 79 -11.6 11.1 -93.1 -3.665
07:14 1032 30.47 861 25.43 -8.5 16.7 79 -11.5 11.2 -93.1 -3.665
07:15 1032 30.47 861 25.43 -8.4 16.9 79 -11.4 11.4 -93.1 -3.665
07:16 1032 30.47 861 25.43 -8.3 17 78 -11.5 11.3 -93.1 -3.665
07:17 1032 30.47 861 25.43 -8.2 17.2 77 -11.6 11.1 -93.1 -3.665
07:18 1032 30.47 861 25.43 -8.3 17.2 77 -11.6 11.2 -93.1 -3.665
07:19 1032 30.47 861 25.43 -8.3 17 74 -12.2 10 -93.1 -3.665
07:20 1032 30.47 861 25.43 -8.6 16.5 78 -11.8 10.7 -93.1 -3.665
07:21 1032 30.47 861 25.43 -8.7 16.3 79 -11.8 10.8 -93.1 -3.665
07:22 1032 30.47 861 25.43 -8.7 16.3 77 -12 10.5 -93.1 -3.665
07:23 1032 30.47 861 25.43 -8.7 16.3 79 -11.7 11 -93.1 -3.665
07:24 1032 30.47 861 25.43 -8.6 16.5 78 -11.8 10.8 -93.2 -3.669
07:25 1032 30.47 861 25.43 -8.5 16.8 78 -11.6 11.1 -93.2 -3.669
07:26 1032 30.47 861 25.43 -8.3 17 77 -11.7 10.9 -93.2 -3.669
07:27 1032 30.47 861 25.43 -8.2 17.2 76 -11.7 10.9 -93.2 -3.669
07:28 1032 30.47 861 25.43 -8.3 17 74 -12.2 10 -93.2 -3.669
07:29 1032 30.47 861 25.43 -8.5 16.7 77 -11.8 10.7 -93.2 -3.669
07:30 1032 30.47 861 25.43 -8.6 16.6 76 -12.1 10.2 -93.2 -3.669
07:31 1032 30.47 861 25.43 -8.8 16.2 74 -12.6 9.3 -93.2 -3.669
07:32 1032 30.47 861 25.43 -9.2 15.5 74 -13 8.5 -93.2 -3.669
07:33 1032 30.47 861 25.43 -9.6 14.7 79 -12.7 9.2 -93.2 -3.669
07:34 1032 30.47 861 25.43 -9.8 14.4 81 -12.5 9.5 -93.2 -3.669
07:35 1032 30.47 861 25.43 -9.7 14.5 81 -12.5 9.5 -93.2 -3.669
07:36 1032 30.47 861 25.43 -9.8 14.4 80 -12.6 9.2 -93.2 -3.669
07:37 1032 30.47 861 25.43 -9.9 14.3 80 -12.7 9.2 -93.2 -3.669
07:38 1032 30.47 861 25.43 -10 14.1 79 -12.9 8.8 -93.2 -3.669
07:39 1032 30.47 861 25.43 -10.1 13.9 80 -12.8 8.9 -93.2 -3.669
07:40 1032 30.47 861 25.43 -10.1 13.8 83 -12.5 9.5 -93.2 -3.669
07:41 1032 30.47 861 25.43 -10 14.1 82 -12.5 9.5 -93.2 -3.669
07:42 1032 30.47 861 25.43 -9.8 14.4 80 -12.6 9.4 -93.2 -3.669
07:43 1032 30.47 861 25.43 -9.8 14.5 78 -12.9 8.8 -93.2 -3.669
07:44 1032 30.47 861 25.43 -9.9 14.1 79 -12.9 8.7 -93.2 -3.669
07:45 1032 30.47 861 25.43 -10.1 13.9 79 -13 8.6 -93.2 -3.669
07:46 1032 30.47 861 25.43 -10.2 13.7 79 -13.1 8.4 -93.2 -3.669
07:47 1032 30.47 861 25.43 -10.3 13.4 79 -13.3 8 -93.2 -3.669
07:48 1032 30.47 861 25.43 -10.5 13.1 79 -13.5 7.7 -93.2 -3.669
07:49 1032 30.47 861 25.43 -10.7 12.8 80 -13.5 7.7 -93.2 -3.669
07:50 1032 30.47 861 25.43 -10.8 12.5 80 -13.6 7.5 -93.2 -3.669
07:51 1032 30.47 861 25.43 -10.9 12.3 80 -13.7 7.3 -93.2 -3.669
07:52 1032 30.47 861 25.43 -11.1 12 80 -13.9 7 -93.3 -3.673
07:53 1032 30.47 861 25.43 -11.3 11.7 81 -13.9 7 -93.3 -3.673
07:54 1032 30.47 861 25.43 -11.4 11.6 82 -13.9 7 -93.3 -3.673
07:55 1032 30.47 861 25.43 -11.4 11.5 82 -13.9 7 -93.3 -3.673
07:56 1032 30.47 861 25.43 -11.4 11.4 82 -13.9 7.1 -93.3 -3.673
07:57 1032 30.47 861 25.43 -11.4 11.4 83 -13.8 7.1 -93.3 -3.673
07:58 1032 30.47 861 25.43 -11.5 11.3 83 -13.8 7.1 -93.3 -3.673
07:59 1032 30.47 861 25.43 -11.5 11.4 83 -13.8 7.1 -93.3 -3.673
08:00 1032 30.47 861 25.43 -11.5 11.3 83 -13.9 6.9 -93.3 -3.673
08:01 1032 30.47 861 25.43 -11.6 11.1 82 -14.1 6.7 -93.3 -3.673
08:02 1032 30.47 861 25.43 -11.8 10.8 82 -14.3 6.3 -93.3 -3.673
08:03 1032 30.47 861 25.43 -11.9 10.6 83 -14.3 6.3 -93.3 -3.673
08:04 1032 30.47 861 25.43 -11.9 10.5 82 -14.4 6.1 -93.3 -3.673
08:05 1032 30.47 861 25.43 -12.1 10.2 83 -14.5 5.9 -93.3 -3.673
08:06 1032 30.47 861 25.43 -12.2 10 84 -14.5 6 -93.3 -3.673
08:07 1032 30.47 861 25.43 -12.2 10 84 -14.4 6.1 -93.3 -3.673
08:08 1032 30.47 861 25.43 -12.2 10 85 -14.2 6.4 -93.3 -3.673
08:09 1032 30.47 861 25.43 -12.2 10.1 85 -14.2 6.4 -93.3 -3.673
08:10 1032 30.47 861 25.43 -12.2 10.1 85 -14.2 6.5 -93.3 -3.673
08:11 1032 30.47 861 25.43 -12.1 10.2 85 -14.1 6.7 -93.3 -3.673
08:12 1032 30.47 861 25.43 -12 10.4 86 -13.9 6.9 -93.3 -3.673
08:13 1032 30.47 861 25.43 -11.9 10.7 87 -13.7 7.4 -93.3 -3.673
08:14 1032 30.47 861 25.43 -11.6 11.1 87 -13.4 7.9 -93.3 -3.673
08:15 1032 30.47 861 25.43 -11.3 11.6 85 -13.3 8 -93.3 -3.673
08:16 1032 30.47 861 25.43 -11.3 11.8 83 -13.6 7.5 -93.3 -3.673
08:17 1032 30.47 861 25.43 -11.3 11.7 83 -13.6 7.5 -93.3 -3.673
08:18 1032 30.47 861 25.43 -11.3 11.7 83 -13.6 7.6 -93.3 -3.673
08:19 1032 30.47 861 25.43 -11.2 11.8 83 -13.6 7.5 -93.3 -3.673
08:20 1032 30.47 861 25.43 -11.2 11.9 83 -13.5 7.8 -93.3 -3.673
08:21 1032 30.47 861 25.43 -11.1 11.9 83 -13.5 7.7 -93.3 -3.673
08:22 1032 30.47 861 25.43 -11.1 12 83 -13.5 7.7 -93.3 -3.673
08:23 1032 30.47 861 25.43 -11.1 12.1 83 -13.4 8 -93.3 -3.673
08:24 1032 30.47 861 25.43 -11 12.2 83 -13.4 7.9 -93.3 -3.673
08:25 1032 30.47 861 25.43 -11 12.2 82 -13.6 7.6 -93.3 -3.673
08:26 1032 30.47 861 25.43 -11.1 12.1 82 -13.6 7.6 -93.3 -3.673
08:27 1032 30.47 861 25.43 -11.1 12.1 82 -13.6 7.5 -93.3 -3.673
08:28 1032 30.47 861 25.43 -11.1 12 81 -13.8 7.1 -93.3 -3.673
08:29 1032 30.47 861 25.43 -11.4 11.6 80 -14.2 6.4 -93.3 -3.673
08:30 1032 30.47 861 25.43 -11.7 11 80 -14.5 6 -93.3 -3.673
08:31 1032 30.47 861 25.43 -11.9 10.6 82 -14.5 6 -93.4 -3.677
08:32 1032 30.47 861 25.43 -12 10.4 83 -14.3 6.2 -93.4 -3.677
08:33 1032 30.47 861 25.43 -12 10.4 84 -14.2 6.5 -93.4 -3.677
08:34 1032 30.47 861 25.43 -11.9 10.5 85 -14 6.7 -93.4 -3.677
08:35 1032 30.47 861 25.43 -11.9 10.6 85 -13.9 6.9 -93.4 -3.677
08:36 1032 30.47 861 25.43 -11.7 10.9 85 -13.8 7.2 -93.4 -3.677
08:37 1032 30.47 861 25.43 -11.6 11.1 83 -14 6.9 -93.4 -3.677
08:38 1032 30.47 861 25.43 -11.7 11 82 -14.1 6.6 -93.4 -3.677
08:39 1032 30.47 861 25.43 -11.8 10.8 84 -14 6.9 -93.4 -3.677
08:40 1032 30.47 861 25.43 -11.7 11 84 -13.8 7.1 -93.4 -3.677
08:41 1032 30.47 861 25.43 -11.5 11.2 85 -13.6 7.6 -93.4 -3.677
08:42 1031 30.45 861 25.43 -11.4 11.5 84 -13.6 7.5 -93.4 -3.677
08:43 1031 30.45 861 25.43 -11.3 11.7 83 -13.7 7.4 -93.4 -3.677
08:44 1031 30.45 861 25.43 -11.3 11.7 83 -13.6 7.5 -93.4 -3.677
08:45 1031 30.45 861 25.43 -11.2 11.9 84 -13.4 7.9 -93.4 -3.677
08:46 1031 30.45 861 25.43 -11 12.3 85 -13.1 8.5 -93.4 -3.677
08:47 1031 30.45 861 25.43 -10.7 12.8 83 -13 8.5 -93.4 -3.677
08:48 1031 30.45 861 25.43 -10.5 13 81 -13.2 8.3 -93.4 -3.677
08:49 1031 30.45 861 25.43 -10.6 13 81 -13.2 8.2 -93.4 -3.677
08:50 1031 30.45 861 25.43 -10.5 13 81 -13.3 8.1 -93.4 -3.677
08:51 1031 30.45 861 25.43 -10.6 13 81 -13.2 8.3 -93.4 -3.677
08:52 1031 30.45 861 25.43 -10.5 13 81 -13.2 8.2 -93.4 -3.677
08:53 1031 30.45 861 25.43 -10.5 13.2 81 -13.1 8.4 -93.4 -3.677
08:54 1031 30.45 861 25.43 -10.5 13.2 82 -13 8.6 -93.4 -3.677
08:55 1031 30.45 861 25.43 -10.3 13.4 81 -12.9 8.7 -93.4 -3.677
08:56 1031 30.45 861 25.43 -10.2 13.6 81 -12.8 8.9 -93.4 -3.677
08:57 1031 30.45 861 25.43 -10.1 13.9 81 -12.8 9 -93.4 -3.677
08:58 1031 30.45 861 25.43 -10 14.1 81 -12.6 9.3 -93.4 -3.677
08:59 1031 30.45 861 25.43 -9.8 14.4 82 -12.4 9.7 -93.4 -3.677
09:00 1031 30.45 861 25.43 -9.7 14.6 82 -12.2 10 -93.3 -3.673
09:01 1031 30.45 861 25.43 -9.5 15 82 -12 10.5 -93.3 -3.673
09:02 1032 30.47 861 25.43 -9.2 15.4 82 -11.7 10.9 -93.3 -3.673
09:03 1032 30.47 861 25.43 -9 15.9 82 -11.4 11.4 -93.3 -3.673
09:04 1032 30.47 861 25.43 -8.7 16.3 81 -11.4 11.5 -93.3 -3.673
09:05 1032 30.47 861 25.43 -8.6 16.6 81 -11.3 11.7 -93.3 -3.673
09:06 1031 30.45 861 25.43 -8.4 16.9 81 -11 12.1 -93.3 -3.673
09:07 1031 30.45 861 25.43 -8.3 17.1 81 -11.1 12.1 -93.3 -3.673
09:08 1031 30.45 861 25.43 -8.2 17.3 81 -10.8 12.5 -93.2 -3.669
09:09 1031 30.45 861 25.43 -8 17.5 80 -10.8 12.5 -93.2 -3.669
09:10 1031 30.45 861 25.43 -8 17.7 80 -10.8 12.6 -93.2 -3.669
09:11 1031 30.45 861 25.43 -7.9 17.8 82 -10.5 13.1 -93.2 -3.669
09:12 1031 30.45 861 25.43 -7.8 18 81 -10.6 13 -93.2 -3.669
09:13 1031 30.45 861 25.43 -7.7 18.1 80 -10.6 13 -93.2 -3.669
09:14 1031 30.45 861 25.43 -7.6 18.3 78 -10.8 12.6 -93.2 -3.669
09:15 1031 30.45 861 25.43 -7.6 18.4 78 -10.7 12.7 -93.1 -3.665
09:16 1031 30.45 861 25.43 -7.5 18.5 77 -10.8 12.6 -93.1 -3.665
09:17 1032 30.47 861 25.43 -7.4 18.6 78 -10.6 13 -93.1 -3.665
09:18 1032 30.47 861 25.43 -7.3 18.9 80 -10.2 13.6 -93.1 -3.665
09:19 1032 30.47 861 25.43 -7.1 19.2 79 -10.1 13.7 -93.1 -3.665
09:20 1032 30.47 861 25.43 -7 19.4 77 -10.3 13.4 -93.1 -3.665
09:21 1032 30.47 861 25.43 -6.9 19.6 78 -10.1 13.8 -93.1 -3.665
09:22 1032 30.47 861 25.43 -6.7 20 77 -10 13.9 -93.1 -3.665
09:23 1032 30.47 861 25.43 -6.6 20.1 77 -9.9 14.1 -93.1 -3.665
09:24 1031 30.45 861 25.43 -6.5 20.4 76 -10 14 -93.1 -3.665
09:25 1031 30.45 861 25.43 -6.4 20.5 75 -10.2 13.7 -93.1 -3.665
09:26 1031 30.45 861 25.43 -6.4 20.5 74 -10.3 13.5 -93.1 -3.665
09:27 1031 30.45 861 25.43 -6.3 20.6 75 -10 13.9 -93.1 -3.665
09:28 1031 30.45 861 25.43 -6.2 20.8 74 -10.2 13.6 -93.1 -3.665
09:29 1031 30.45 861 25.43 -6.2 20.9 74 -10.1 13.7 -93.1 -3.665
09:30 1031 30.45 861 25.43 -6 21.2 76 -9.5 14.9 -93 -3.661
09:31 1031 30.45 861 25.43 -6 21.2 72 -10.2 13.7 -93.1 -3.665
09:32 1031 30.45 861 25.43 -5.9 21.3 71 -10.4 13.2 -93.1 -3.665
09:33 1031 30.45 861 25.43 -5.9 21.4 73 -10.1 13.9 -93.1 -3.665
09:34 1031 30.45 861 25.43 -5.8 21.6 70 -10.4 13.3 -93 -3.661
09:35 1031 30.45 861 25.43 -5.8 21.6 71 -10.2 13.7 -93 -3.661
09:36 1031 30.45 861 25.43 -5.8 21.6 73 -9.9 14.2 -93 -3.661
09:37 1031 30.45 861 25.43 -5.7 21.7 71 -10.1 13.8 -93 -3.661
09:38 1031 30.45 861 25.43 -5.6 21.9 72 -10 14 -93 -3.661
09:39 1031 30.45 860 25.4 -5.5 22.1 72 -9.9 14.2 -93 -3.661
09:40 1031 30.45 860 25.4 -5.5 22.2 72 -9.7 14.6 -93 -3.661
09:41 1031 30.45 860 25.4 -5.3 22.5 72 -9.5 14.9 -93 -3.661
09:42 1031 30.45 860 25.4 -5.1 22.7 72 -9.4 15 -93 -3.661
09:43 1031 30.45 860 25.4 -5.1 22.9 72 -9.4 15.1 -93 -3.661
09:44 1031 30.45 860 25.4 -5.1 22.9 69 -9.8 14.3 -93 -3.661
09:45 1031 30.45 860 25.4 -5 23 72 -9.3 15.3 -93 -3.661
09:46 1031 30.45 860 25.4 -4.9 23.1 73 -9.1 15.7 -93 -3.661
09:47 1031 30.45 860 25.4 -4.9 23.2 71 -9.4 15.1 -93 -3.661
09:48 1031 30.45 860 25.4 -4.8 23.3 68 -9.9 14.2 -93 -3.661
09:49 1031 30.45 860 25.4 -4.8 23.3 68 -9.9 14.1 -92.9 -3.657
09:50 1031 30.45 860 25.4 -4.7 23.5 69 -9.6 14.8 -92.9 -3.657
09:51 1031 30.45 860 25.4 -4.6 23.8 67 -9.7 14.5 -92.9 -3.657
09:52 1031 30.45 860 25.4 -4.4 24.1 69 -9.3 15.3 -92.9 -3.657
09:53 1031 30.45 860 25.4 -4.3 24.2 68 -9.4 15.1 -92.9 -3.657
09:54 1031 30.45 860 25.4 -4.3 24.2 67 -9.7 14.6 -92.9 -3.657
09:55 1031 30.45 860 25.4 -4.4 24.2 64 -10.1 13.8 -92.9 -3.657
09:56 1031 30.45 860 25.4 -4.4 24.1 66 -9.8 14.4 -92.9 -3.657
09:57 1031 30.45 860 25.4 -4.3 24.3 71 -8.8 16.2 -92.8 -3.654
09:58 1031 30.45 860 25.4 -4.1 24.6 64 -9.9 14.2 -92.8 -3.654
09:59 1031 30.45 860 25.4 -4.1 24.6 65 -9.8 14.4 -92.8 -3.654
10:00 1031 30.45 860 25.4 -4 24.8 66 -9.5 14.9 -92.8 -3.654
10:01 1031 30.45 860 25.4 -4 24.9 65 -9.6 14.8 -92.8 -3.654
10:02 1031 30.45 860 25.4 -4 24.8 69 -8.9 15.9 -92.8 -3.654
10:03 1031 30.45 860 25.4 -3.8 25.1 69 -8.7 16.3 -92.8 -3.654
10:04 1031 30.45 860 25.4 -3.7 25.4 65 -9.4 15.1 -92.8 -3.654
10:05 1031 30.45 860 25.4 -3.5 25.6 65 -9.3 15.3 -92.8 -3.654
10:06 1031 30.45 860 25.4 -3.5 25.7 64 -9.4 15.1 -92.8 -3.654
10:07 1031 30.45 860 25.4 -3.6 25.6 61 -10.1 13.8 -92.8 -3.654
10:08 1031 30.45 860 25.4 -3.8 25.2 65 -9.5 14.9 -92.8 -3.654
10:09 1031 30.45 860 25.4 -3.8 25.1 66 -9.3 15.3 -92.8 -3.654
10:10 1031 30.45 860 25.4 -3.8 25.2 65 -9.5 15 -92.7 -3.65
10:11 1031 30.45 860 25.4 -3.6 25.4 63 -9.7 14.6 -92.7 -3.65
10:12 1031 30.45 860 25.4 -3.5 25.7 63 -9.5 14.9 -92.7 -3.65
10:13 1031 30.45 860 25.4 -3.2 26.2 65 -8.8 16.2 -92.6 -3.646
10:14 1031 30.45 860 25.4 -2.9 26.7 63 -8.9 15.9 -92.6 -3.646
10:15 1031 30.45 860 25.4 -2.8 27 63 -8.8 16.1 -92.6 -3.646
10:16 1031 30.45 860 25.4 -2.9 26.8 61 -9.5 14.9 -92.6 -3.646
10:17 1031 30.45 860 25.4 -3.2 26.3 60 -9.9 14.2 -92.6 -3.646
10:18 1031 30.45 860 25.4 -3.3 26 62 -9.6 14.6 -92.6 -3.646
10:19 1031 30.45 860 25.4 -3.4 25.9 61 -9.8 14.3 -92.6 -3.646
10:20 1031 30.45 860 25.4 -3.4 25.9 61 -9.8 14.4 -92.6 -3.646
10:21 1031 30.45 860 25.4 -3.3 26 65 -9 15.8 -92.6 -3.646
10:22 1031 30.45 860 25.4 -3.4 25.8 59 -10.4 13.3 -92.6 -3.646
10:23 1031 30.45 860 25.4 -3.6 25.5 67 -8.8 16.1 -92.6 -3.646
10:24 1031 30.45 860 25.4 -3.6 25.5 62 -9.8 14.4 -92.6 -3.646
10:25 1031 30.45 860 25.4 -3.6 25.5 60 -10.2 13.6 -92.6 -3.646
10:26 1031 30.45 860 25.4 -3.6 25.5 60 -10.3 13.5 -92.6 -3.646
10:27 1031 30.45 860 25.4 -3.5 25.7 61 -9.9 14.1 -92.6 -3.646
10:28 1031 30.45 860 25.4 -3.5 25.7 61 -10.1 13.9 -92.5 -3.642
10:29 1031 30.45 860 25.4 -3.5 25.8 60 -10.1 13.9 -92.5 -3.642
10:30 1031 30.45 860 25.4 -3.4 25.8 59 -10.4 13.4 -92.5 -3.642
10:31 1031 30.45 860 25.4 -3.4 26 65 -9 15.8 -92.5 -3.642
10:32 1031 30.45 860 25.4 -3.2 26.2 62 -9.5 14.9 -92.5 -3.642
10:33 1031 30.45 860 25.4 -3.2 26.2 61 -9.7 14.6 -92.5 -3.642
10:34 1031 30.45 860 25.4 -3.1 26.3 58 -10.4 13.3 -92.5 -3.642
10:35 1031 30.45 860 25.4 -3.1 26.3 59 -10 14 -92.5 -3.642
10:36 1031 30.45 860 25.4 -3.1 26.4 61 -9.7 14.6 -92.5 -3.642
10:37 1031 30.45 860 25.4 -3.2 26.2 63 -9.3 15.3 -92.5 -3.642
10:38 1031 30.45 860 25.4 -3.2 26.2 61 -9.8 14.4 -92.5 -3.642
10:39 1031 30.45 860 25.4 -3.4 25.9 60 -10.2 13.7 -92.5 -3.642
10:40 1031 30.45 860 25.4 -3.3 26.1 61 -9.9 14.2 -92.4 -3.638
10:41 1031 30.45 860 25.4 -3.1 26.4 65 -8.7 16.4 -92.4 -3.638
10:42 1031 30.45 860 25.4 -2.8 27 59 -9.8 14.4 -92.4 -3.638
10:43 1031 30.45 860 25.4 -2.8 27 58 -9.9 14.2 -92.4 -3.638
10:44 1031 30.45 860 25.4 -2.9 26.7 57 -10.2 13.6 -92.4 -3.638
10:45 1031 30.45 860 25.4 -3 26.7 60 -9.7 14.5 -92.4 -3.638
10:46 1031 30.45 860 25.4 -2.9 26.8 57 -10.3 13.5 -92.3 -3.634
10:47 1031 30.45 860 25.4 -3 26.6 58 -10 13.9 -92.3 -3.634
10:48 1031 30.45 860 25.4 -3.1 26.4 63 -9.2 15.4 -92.3 -3.634
10:49 1031 30.45 860 25.4 -3.1 26.4 58 -10.2 13.7 -92.3 -3.634
10:50 1031 30.45 860 25.4 -3 26.6 57 -10.3 13.5 -92.3 -3.634
10:51 1031 30.45 860 25.4 -3 26.7 55 -10.8 12.6 -92.3 -3.634
10:52 1031 30.45 860 25.4 -3 26.6 58 -10.1 13.8 -92.3 -3.634
10:53 1031 30.45 860 25.4 -2.9 26.9 57 -10.3 13.4 -92.3 -3.634
10:54 1031 30.45 860 25.4 -2.8 27 58 -10 14 -92.3 -3.634
10:55 1031 30.45 860 25.4 -2.8 27 59 -9.6 14.7 -92.3 -3.634
10:56 1031 30.45 860 25.4 -2.8 27 55 -10.7 12.8 -92.3 -3.634
10:57 1031 30.45 860 25.4 -2.8 27 55 -10.5 13.1 -92.3 -3.634
10:58 1031 30.45 860 25.4 -2.6 27.4 54 -10.6 13 -92.3 -3.634
10:59 1031 30.45 860 25.4 -2.6 27.4 53 -10.8 12.5 -92.3 -3.634
11:00 1031 30.45 860 25.4 -2.6 27.4 55 -10.5 13.1 -92.2 -3.63
11:01 1031 30.45 860 25.4 -2.5 27.5 57 -9.9 14.2 -92.2 -3.63
11:02 1031 30.45 860 25.4 -2.5 27.5 55 -10.3 13.5 -92.2 -3.63
11:03 1031 30.45 860 25.4 -2.5 27.5 53 -10.8 12.5 -92.2 -3.63
11:04 1031 30.45 860 25.4 -2.5 27.5 56 -10.1 13.9 -92.2 -3.63
11:05 1031 30.45 860 25.4 -2.5 27.5 55 -10.4 13.3 -92.2 -3.63
11:06 1031 30.45 860 25.4 -2.4 27.7 57 -9.8 14.4 -92.2 -3.63
11:07 1031 30.45 860 25.4 -2.2 28 58 -9.4 15 -92.1 -3.626
11:08 1031 30.45 860 25.4 -2 28.4 58 -9.2 15.5 -92.1 -3.626
11:09 1031 30.45 860 25.4 -2 28.4 54 -10.2 13.6 -92.1 -3.626
11:10 1031 30.45 860 25.4 -2.1 28.2 52 -10.7 12.8 -92.1 -3.626
11:11 1031 30.45 860 25.4 -2.2 28 54 -10.3 13.5 -92.1 -3.626
11:12 1031 30.45 860 25.4 -2.2 28 50 -11.2 11.8 -92.1 -3.626
11:13 1031 30.45 860 25.4 -2.2 28 54 -10.3 13.5 -92.1 -3.626
11:14 1031 30.45 860 25.4 -2.2 28.1 53 -10.6 12.9 -92.1 -3.626
11:15 1031 30.45 860 25.4 -2.1 28.2 56 -9.7 14.6 -92 -3.622
11:16 1031 30.45 860 25.4 -2.3 27.9 55 -10.1 13.8 -92.1 -3.626
11:17 1031 30.45 860 25.4 -2.4 27.7 56 -10 14 -92 -3.622
11:18 1031 30.45 860 25.4 -2.4 27.7 56 -9.9 14.1 -92 -3.622
11:19 1031 30.45 860 25.4 -2.4 27.7 59 -9.4 15.1 -92 -3.622
11:20 1031 30.45 860 25.4 -2.4 27.7 59 -9.3 15.2 -92 -3.622
11:21 1031 30.45 860 25.4 -2.4 27.8 55 -10.2 13.7 -92 -3.622
11:22 1031 30.45 860 25.4 -2.4 27.7 53 -10.8 12.5 -92 -3.622
11:23 1031 30.45 860 25.4 -2.4 27.7 55 -10.2 13.7 -92 -3.622
11:24 1031 30.45 860 25.4 -2.2 28.1 54 -10.3 13.4 -92 -3.622
11:25 1031 30.45 860 25.4 -2 28.4 53 -10.3 13.4 -91.9 -3.618
11:26 1031 30.45 860 25.4 -1.9 28.5 52 -10.6 12.9 -91.9 -3.618
11:27 1031 30.45 860 25.4 -2 28.4 50 -11.2 11.9 -91.9 -3.618
11:28 1031 30.45 860 25.4 -2 28.4 53 -10.4 13.3 -91.9 -3.618
11:29 1031 30.45 860 25.4 -1.9 28.5 51 -10.8 12.5 -91.9 -3.618
11:30 1031 30.45 860 25.4 -1.9 28.6 50 -10.9 12.5 -91.9 -3.618
11:31 1031 30.45 860 25.4 -1.7 28.9 50 -10.7 12.7 -91.9 -3.618
11:32 1030 30.42 860 25.4 -1.5 29.2 50 -10.6 12.9 -91.8 -3.614
11:33 1030 30.42 860 25.4 -1.5 29.4 49 -10.7 12.7 -91.8 -3.614
11:34 1031 30.45 860 25.4 -1.6 29.1 52 -10.2 13.7 -91.8 -3.614
11:35 1030 30.42 860 25.4 -1.6 29.1 52 -10.3 13.4 -91.8 -3.614
11:36 1031 30.45 860 25.4 -1.6 29.2 50 -10.6 13 -91.8 -3.614
11:37 1031 30.45 860 25.4 -1.7 29 49 -11.1 12.1 -91.8 -3.614
11:38 1030 30.42 860 25.4 -1.8 28.7 52 -10.4 13.4 -91.8 -3.614
11:39 1030 30.42 860 25.4 -1.8 28.7 48 -11.4 11.5 -91.8 -3.614
11:40 1030 30.42 860 25.4 -1.8 28.8 49 -11.1 12 -91.8 -3.614
11:41 1030 30.42 860 25.4 -1.7 28.9 49 -11.2 11.8 -91.8 -3.614
11:42 1030 30.42 860 25.4 -1.8 28.8 50 -10.9 12.4 -91.8 -3.614
11:43 1030 30.42 860 25.4 -1.8 28.8 51 -10.7 12.7 -91.8 -3.614
11:44 1030 30.42 860 25.4 -1.7 28.9 53 -10 14 -91.8 -3.614
11:45 1030 30.42 860 25.4 -1.7 29 50 -10.8 12.6 -91.8 -3.614
11:46 1030 30.42 860 25.4 -1.7 29 51 -10.5 13.1 -91.8 -3.614
11:47 1030 30.42 860 25.4 -1.5 29.2 51 -10.5 13 -91.8 -3.614
11:48 1030 30.42 859 25.37 -1.4 29.5 53 -9.7 14.5 -91.7 -3.61
11:49 1030 30.42 859 25.37 -1.3 29.7 50 -10.3 13.4 -91.7 -3.61
11:50 1030 30.42 859 25.37 -1.3 29.7 51 -10.1 13.8 -91.7 -3.61
11:51 1030 30.42 859 25.37 -1.1 30.1 52 -9.7 14.6 -91.6 -3.606
11:52 1030 30.42 859 25.37 -0.8 30.5 52 -9.5 14.9 -91.5 -3.602
11:53 1030 30.42 859 25.37 -0.7 30.8 51 -9.7 14.6 -91.5 -3.602
11:54 1030 30.42 859 25.37 -0.5 31.1 48 -10.2 13.7 -91.4 -3.598
11:55 1030 30.42 859 25.37 -0.4 31.3 50 -9.6 14.8 -91.3 -3.594
11:56 1030 30.42 859 25.37 -0.2 31.6 47 -10.2 13.6 -91.3 -3.594
11:57 1030 30.42 859 25.37 -0.2 31.6 49 -9.7 14.5 -91.2 -3.591
11:58 1030 30.42 859 25.37 -0.4 31.3 50 -9.6 14.7 -91.2 -3.591
11:59 1030 30.42 859 25.37 -0.5 31.2 48 -10.1 13.7 -91.3 -3.594
12:00 1030 30.42 859 25.37 -0.7 30.8 50 -9.8 14.4 -91.3 -3.594
12:01 1030 30.42 859 25.37 -0.9 30.4 51 -9.8 14.4 -91.4 -3.598
12:02 1030 30.42 859 25.37 -1 30.2 54 -9.2 15.4 -91.4 -3.598
12:03 1030 30.42 859 25.37 -0.9 30.3 53 -9.3 15.2 -91.4 -3.598
12:04 1030 30.42 859 25.37 -0.7 30.7 51 -9.7 14.6 -91.4 -3.598
12:05 1030 30.42 859 25.37 -0.6 30.9 51 -9.4 15 -91.5 -3.602
12:06 1030 30.42 859 25.37 -0.6 31 51 -9.4 15.1 -91.5 -3.602
12:07 1030 30.42 859 25.37 -0.6 30.9 51 -9.6 14.6 -91.5 -3.602
12:08 1030 30.42 859 25.37 -0.7 30.7 51 -9.7 14.5 -91.5 -3.602
12:09 1030 30.42 859 25.37 -0.7 30.7 52 -9.4 15.1 -91.5 -3.602
12:10 1030 30.42 859 25.37 -0.6 30.9 50 -9.8 14.4 -91.5 -3.602
12:11 1030 30.42 859 25.37 -0.7 30.8 51 -9.6 14.8 -91.5 -3.602
12:12 1030 30.42 859 25.37 -0.7 30.7 53 -9.3 15.3 -91.5 -3.602
12:13 1030 30.42 859 25.37 -0.8 30.5 51 -9.8 14.3 -91.5 -3.602
12:14 1030 30.42 859 25.37 -0.9 30.3 52 -9.5 14.9 -91.5 -3.602
12:15 1030 30.42 859 25.37 -0.8 30.6 51 -9.8 14.3 -91.5 -3.602
12:16 1030 30.42 859 25.37 -0.6 30.9 53 -9.1 15.7 -91.5 -3.602
12:17 1030 30.42 859 25.37 -0.4 31.2 50 -9.7 14.5 -91.4 -3.598
12:18 1030 30.42 859 25.37 -0.3 31.4 49 -9.8 14.4 -91.3 -3.594
12:19 1030 30.42 859 25.37 -0.3 31.4 50 -9.5 14.9 -91.3 -3.594
12:20 1030 30.42 859 25.37 -0.3 31.4 48 -10 14.1 -91.3 -3.594
12:21 1030 30.42 859 25.37 -0.6 30.9 49 -10 14 -91.3 -3.594
12:22 1030 30.42 859 25.37 -0.7 30.7 51 -9.5 14.8 -91.1 -3.587
12:23 1030 30.42 859 25.37 -0.6 31 51 -9.4 15.1 -91 -3.583
12:24 1030 30.42 859 25.37 -0.5 31.1 49 -9.9 14.2 -91.1 -3.587
12:25 1030 30.42 859 25.37 -0.4 31.2 49 -10 14.1 -91.1 -3.587
12:26 1030 30.42 859 25.37 -0.4 31.2 51 -9.5 14.9 -91.2 -3.591
12:27 1030 30.42 859 25.37 -0.4 31.3 51 -9.3 15.2 -91.2 -3.591
12:28 1030 30.42 859 25.37 -0.3 31.5 49 -9.8 14.3 -91.2 -3.591
12:29 1030 30.42 859 25.37 -0.2 31.6 47 -10.1 13.7 -91.3 -3.594
12:30 1030 30.42 859 25.37 -0.1 31.8 50 -9.4 15.1 -91.2 -3.591
12:31 1030 30.42 859 25.37 -0.1 31.8 52 -8.7 16.3 -91.2 -3.591
12:32 1030 30.42 859 25.37 -0.2 31.6 51 -9.1 15.7 -91.2 -3.591
12:33 1030 30.42 859 25.37 -0.3 31.5 52 -9 15.8 -91.2 -3.591
12:34 1030 30.42 859 25.37 -0.4 31.3 52 -9.2 15.5 -91.3 -3.594
12:35 1030 30.42 859 25.37 -0.5 31.1 54 -8.6 16.5 -91.3 -3.594
12:36 1030 30.42 859 25.37 -0.4 31.3 53 -8.8 16.2 -91.3 -3.594
12:37 1030 30.42 859 25.37 -0.2 31.6 53 -8.8 16.2 -91.3 -3.594
12:38 1030 30.42 859 25.37 -0.2 31.7 52 -8.8 16.1 -91.3 -3.594
12:39 1030 30.42 859 25.37 -0.4 31.3 53 -8.7 16.3 -91.3 -3.594
12:40 1030 30.42 859 25.37 -0.4 31.3 54 -8.6 16.6 -91.3 -3.594
12:41 1030 30.42 859 25.37 -0.2 31.6 52 -9 15.7 -91.3 -3.594
12:42 1030 30.42 859 25.37 -0 31.9 50 -9.3 15.3 -91.2 -3.591
12:43 1030 30.42 859 25.37 0 32.1 49 -9.6 14.8 -91.2 -3.591
12:44 1030 30.42 859 25.37 -0 32 49 -9.5 14.9 -91.2 -3.591
12:45 1030 30.42 859 25.37 -0 31.9 50 -9.3 15.3 -91.2 -3.591
12:46 1030 30.42 859 25.37 -0 32 51 -9 15.8 -91.2 -3.591
12:47 1030 30.42 859 25.37 -0 32 50 -9.2 15.4 -91.2 -3.591
12:48 1030 30.42 859 25.37 -0.1 31.9 51 -9 15.8 -91.2 -3.591
12:49 1030 30.42 859 25.37 -0.1 31.8 51 -8.9 15.9 -91.2 -3.591
12:50 1030 30.42 859 25.37 -0.1 31.9 51 -9 15.8 -91.2 -3.591
12:51 1030 30.42 859 25.37 -0 31.9 51 -9.1 15.6 -91.2 -3.591
12:52 1030 30.42 859 25.37 -0 32 49 -9.5 14.9 -91.2 -3.591
12:53 1030 30.42 859 25.37 -0 31.9 49 -9.6 14.7 -91.2 -3.591
12:54 1030 30.42 859 25.37 0.1 32.2 49 -9.5 14.9 -91.2 -3.591
12:55 1030 30.42 859 25.37 0.4 32.7 47 -9.6 14.7 -91.2 -3.591
12:56 1030 30.42 859 25.37 0.5 32.9 49 -9 15.8 -91.2 -3.591
12:57 1030 30.42 859 25.37 0.5 32.9 49 -8.9 15.9 -91.1 -3.587
12:58 1029 30.39 859 25.37 0.5 32.8 49 -9 15.8 -91.2 -3.591
12:59 1029 30.39 859 25.37 0.5 33 49 -8.9 16 -91.2 -3.591
13:00 1029 30.39 859 25.37 0.7 33.3 48 -9.2 15.5 -91.2 -3.591
13:01 1029 30.39 859 25.37 0.7 33.3 47 -9.3 15.2 -91.2 -3.591
13:02 1029 30.39 859 25.37 0.6 33.1 49 -8.9 16 -91.2 -3.591
13:03 1029 30.39 858 25.34 0.8 33.4 46 -9.7 14.6 -91.2 -3.591
13:04 1029 30.39 858 25.34 0.8 33.4 48 -9.2 15.5 -91.2 -3.591
13:05 1029 30.39 858 25.34 0.8 33.4 45 -9.8 14.4 -91.2 -3.591
13:06 1029 30.39 858 25.34 0.7 33.3 46 -9.6 14.7 -91.2 -3.591
13:07 1029 30.39 858 25.34 0.8 33.4 47 -9.4 15.1 -91.1 -3.587
13:08 1029 30.39 858 25.34 0.9 33.7 46 -9.5 14.8 -91.1 -3.587
13:09 1029 30.39 858 25.34 1 33.8 44 -9.9 14.1 -91.1 -3.587
13:10 1029 30.39 858 25.34 0.9 33.6 47 -9.3 15.2 -91.1 -3.587
13:11 1029 30.39 858 25.34 0.8 33.4 45 -9.7 14.5 -91.1 -3.587
13:12 1029 30.39 858 25.34 0.7 33.2 46 -9.7 14.6 -91.1 -3.587
13:13 1029 30.39 858 25.34 0.7 33.2 47 -9.4 15 -91.1 -3.587
13:14 1029 30.39 858 25.34 0.8 33.5 45 -9.9 14.1 -91.1 -3.587
13:15 1029 30.39 858 25.34 1 33.7 45 -9.8 14.3 -91.1 -3.587
13:16 1029 30.39 858 25.34 0.9 33.6 44 -10 13.9 -91.1 -3.587
13:17 1029 30.39 858 25.34 0.9 33.7 42 -10.6 13 -91.1 -3.587
13:18 1029 30.39 858 25.34 1 33.9 42 -10.4 13.4 -91.1 -3.587
13:19 1029 30.39 858 25.34 1.2 34.1 41 -10.6 12.9 -91.1 -3.587
13:20 1029 30.39 858 25.34 1.3 34.3 42 -10.4 13.3 -91 -3.583
13:21 1029 30.39 858 25.34 1.5 34.7 40 -10.8 12.6 -90.9 -3.579
13:22 1029 30.39 858 25.34 1.6 34.9 39 -10.9 12.4 -90.9 -3.579
13:23 1029 30.39 858 25.34 1.6 34.8 40 -10.6 12.9 -90.8 -3.575
13:24 1029 30.39 858 25.34 1.5 34.7 41 -10.2 13.6 -90.8 -3.575
13:25 1029 30.39 858 25.34 1.6 34.8 43 -9.8 14.3 -90.8 -3.575
13:26 1029 30.39 858 25.34 1.8 35.3 41 -10.1 13.7 -90.8 -3.575
13:27 1029 30.39 858 25.34 2 35.5 38 -11 12.1 -90.7 -3.571
13:28 1029 30.39 858 25.34 1.7 35 40 -10.6 12.8 -90.8 -3.575
13:29 1029 30.39 858 25.34 1.4 34.5 42 -10.2 13.6 -90.8 -3.575
13:30 1029 30.39 858 25.34 1.3 34.4 41 -10.5 13.1 -90.8 -3.575
13:31 1029 30.39 858 25.34 1.5 34.7 41 -10.4 13.4 -90.9 -3.579
13:32 1029 30.39 858 25.34 1.6 34.8 41 -10.2 13.6 -90.9 -3.579
13:33 1029 30.39 858 25.34 1.6 34.9 40 -10.5 13.1 -90.9 -3.579
13:34 1029 30.39 858 25.34 1.5 34.6 39 -11 12.2 -90.9 -3.579
13:35 1029 30.39 858 25.34 1.3 34.3 40 -10.8 12.5 -90.9 -3.579
13:36 1029 30.39 858 25.34 1.2 34.1 40 -11.1 12 -91 -3.583
13:37 1029 30.39 858 25.34 1.1 34.1 41 -10.8 12.5 -91 -3.583
13:38 1029 30.39 858 25.34 1.3 34.3 40 -11 12.2 -91 -3.583
13:39 1029 30.39 858 25.34 1.3 34.4 37 -11.9 10.6 -91 -3.583
13:40 1029 30.39 858 25.34 1.2 34.2 39 -11.2 11.8 -91 -3.583
13:41 1029 30.39 858 25.34 1.2 34.2 39 -11.4 11.5 -91 -3.583
13:42 1029 30.39 858 25.34 1.3 34.3 38 -11.5 11.3 -91 -3.583
13:43 1029 30.39 858 25.34 1.3 34.4 41 -10.6 12.9 -91 -3.583
13:44 1029 30.39 858 25.34 1.6 35 37 -11.6 11.1 -90.9 -3.579
13:45 1028 30.36 858 25.34 1.9 35.4 39 -10.8 12.6 -90.9 -3.579
13:46 1028 30.36 858 25.34 2.1 35.7 38 -11 12.2 -90.8 -3.575
13:47 1028 30.36 858 25.34 2.1 35.8 37 -11 12.1 -90.8 -3.575
13:48 1028 30.36 858 25.34 2 35.6 38 -11 12.1 -90.8 -3.575
13:49 1028 30.36 858 25.34 1.9 35.3 37 -11.2 11.8 -90.9 -3.579
13:50 1028 30.36 858 25.34 1.8 35.3 38 -10.9 12.4 -90.9 -3.579
13:51 1028 30.36 858 25.34 2 35.6 37 -11.2 11.9 -90.9 -3.579
13:52 1028 30.36 858 25.34 2 35.6 36 -11.6 11.2 -90.9 -3.579
13:53 1028 30.36 858 25.34 1.9 35.4 36 -11.6 11.1 -90.9 -3.579
13:54 1028 30.36 857 25.31 1.9 35.4 37 -11.4 11.5 -90.9 -3.579
13:55 1028 30.36 857 25.31 1.8 35.3 36 -11.7 11 -90.8 -3.575
13:56 1028 30.36 857 25.31 1.7 35.1 37 -11.7 11 -90.9 -3.579
13:57 1028 30.36 857 25.31 1.8 35.2 37 -11.6 11.2 -90.9 -3.579
13:58 1028 30.36 857 25.31 1.8 35.2 37 -11.5 11.3 -90.8 -3.575
13:59 1028 30.36 857 25.31 2 35.6 37 -11.4 11.5 -90.9 -3.579
14:00 1028 30.36 857 25.31 2.2 35.9 33 -12.4 9.7 -90.8 -3.575
14:01 1028 30.36 857 25.31 2.2 35.9 35 -11.7 11 -90.9 -3.579
14:02 1028 30.36 857 25.31 2.2 35.9 36 -11.5 11.2 -90.9 -3.579
14:03 1028 30.36 857 25.31 2.1 35.9 38 -10.6 12.9 -90.9 -3.579
14:04 1028 30.36 857 25.31 2.2 35.9 35 -11.8 10.7 -90.9 -3.579
14:05 1028 30.36 857 25.31 2.2 36 35 -11.7 10.9 -90.9 -3.579
14:06 1028 30.36 857 25.31 2.3 36.1 37 -11.1 12.1 -90.9 -3.579
14:07 1028 30.36 857 25.31 2.2 36 34 -12.1 10.1 -90.8 -3.575
14:08 1028 30.36 857 25.31 2.1 35.8 34 -12.2 10 -90.9 -3.579
14:09 1028 30.36 857 25.31 2.1 35.8 35 -11.9 10.6 -90.9 -3.579
14:10 1028 30.36 857 25.31 2.1 35.9 34 -12.3 9.9 -90.8 -3.575
14:11 1028 30.36 857 25.31 2.2 35.9 30 -13.6 7.6 -90.8 -3.575
14:12 1028 30.36 857 25.31 2.2 36 31 -13.4 7.8 -90.8 -3.575
14:13 1028 30.36 857 25.31 2.1 35.8 31 -13.5 7.7 -90.9 -3.579
14:14 1028 30.36 857 25.31 2 35.6 32 -13.2 8.3 -90.8 -3.575
14:15 1028 30.36 857 25.31 2 35.7 35 -11.8 10.7 -90.8 -3.575
14:16 1028 30.36 857 25.31 2.1 35.8 35 -12 10.4 -90.9 -3.579
14:17 1028 30.36 857 25.31 2.2 36 34 -12.3 9.9 -90.8 -3.575
14:18 1028 30.36 857 25.31 2.2 36 33 -12.6 9.4 -90.8 -3.575
14:19 1028 30.36 857 25.31 2.1 35.8 34 -12.2 10.1 -90.9 -3.579
14:20 1028 30.36 857 25.31 2.2 35.9 36 -11.5 11.4 -90.8 -3.575
14:21 1028 30.36 857 25.31 2.4 36.3 33 -12.3 9.9 -90.8 -3.575
14:22 1028 30.36 857 25.31 2.5 36.4 33 -12.4 9.7 -90.8 -3.575
14:23 1028 30.36 857 25.31 2.4 36.2 33 -12.4 9.7 -90.8 -3.575
14:24 1028 30.36 857 25.31 2.3 36.1 32 -12.7 9.2 -90.8 -3.575
14:25 1028 30.36 857 25.31 2.4 36.3 30 -13.4 7.9 -90.8 -3.575
14:26 1028 30.36 857 25.31 2.3 36.2 32 -12.6 9.3 -90.9 -3.579
14:27 1028 30.36 857 25.31 2.3 36.1 31 -13.3 8.1 -90.9 -3.579
14:28 1028 30.36 857 25.31 2.3 36.1 29 -14.1 6.6 -90.9 -3.579
14:29 1028 30.36 857 25.31 2.3 36.1 30 -13.7 7.3 -90.9 -3.579
14:30 1028 30.36 857 25.31 2.3 36.1 32 -12.7 9.1 -90.8 -3.575
14:31 1028 30.36 857 25.31 2.3 36.1 31 -13.3 8 -90.8 -3.575
14:32 1028 30.36 857 25.31 2.2 36 32 -12.8 9 -90.8 -3.575
14:33 1028 30.36 857 25.31 2.2 36 31 -13.4 7.8 -90.8 -3.575
14:34 1028 30.36 857 25.31 2.3 36.1 31 -13.2 8.2 -90.8 -3.575
14:35 1028 30.36 857 25.31 2.4 36.3 31 -13 8.6 -90.8 -3.575
14:36 1028 30.36 857 25.31 2.5 36.4 32 -12.6 9.3 -90.8 -3.575
14:37 1028 30.36 857 25.31 2.4 36.4 32 -12.8 9 -90.8 -3.575
14:38 1028 30.36 857 25.31 2.5 36.5 30 -13.3 8.1 -90.8 -3.575
14:39 1028 30.36 857 25.31 2.6 36.7 31 -13.1 8.4 -90.8 -3.575
14:40 1028 30.36 857 25.31 2.6 36.7 31 -12.8 9 -90.8 -3.575
14:41 1028 30.36 857 25.31 2.7 36.8 31 -12.7 9.1 -90.8 -3.575
14:42 1028 30.36 857 25.31 2.8 37 32 -12.3 9.9 -90.7 -3.571
14:43 1028 30.36 857 25.31 2.9 37.2 34 -11.5 11.2 -90.7 -3.571
14:44 1028 30.36 857 25.31 2.9 37.2 33 -11.8 10.7 -90.7 -3.571
14:45 1028 30.36 857 25.31 2.8 37.1 33 -11.9 10.5 -90.7 -3.571
14:46 1028 30.36 857 25.31 2.8 37.1 33 -11.8 10.8 -90.7 -3.571
14:47 1028 30.36 857 25.31 2.9 37.3 31 -12.7 9.2 -90.7 -3.571
14:48 1028 30.36 857 25.31 3 37.5 32 -12 10.4 -90.7 -3.571
14:49 1028 30.36 857 25.31 3.1 37.5 32 -12 10.4 -90.7 -3.571
14:50 1028 30.36 857 25.31 3 37.3 32 -12.3 9.8 -90.7 -3.571
14:51 1028 30.36 857 25.31 2.9 37.2 32 -12.3 9.8 -90.7 -3.571
14:52 1028 30.36 857 25.31 2.9 37.2 32 -12.2 10 -90.7 -3.571
14:53 1028 30.36 857 25.31 2.8 37.1 32 -12.2 10.1 -90.7 -3.571
14:54 1028 30.36 857 25.31 2.8 37.1 30 -13.2 8.2 -90.7 -3.571
14:55 1028 30.36 857 25.31 2.9 37.2 30 -13.2 8.2 -90.7 -3.571
14:56 1028 30.36 857 25.31 3 37.5 32 -12.2 10 -90.7 -3.571
14:57 1028 30.36 857 25.31 3.1 37.5 31 -12.3 9.8 -90.7 -3.571
14:58 1028 30.36 857 25.31 3 37.3 32 -12.3 9.9 -90.7 -3.571
14:59 1028 30.36 857 25.31 2.9 37.1 33 -11.9 10.6 -90.7 -3.571
15:00 1028 30.36 857 25.31 2.9 37.2 31 -12.7 9.2 -90.7 -3.571
15:01 1027 30.33 857 25.31 2.9 37.2 31 -12.6 9.3 -90.7 -3.571
15:02 1027 30.33 857 25.31 3.1 37.5 30 -13 8.6 -90.7 -3.571
15:03 1027 30.33 857 25.31 3.1 37.6 30 -13 8.6 -90.7 -3.571
15:04 1027 30.33 857 25.31 3.3 37.9 29 -13.1 8.4 -90.6 -3.567
15:05 1027 30.33 857 25.31 3.4 38.2 28 -13.5 7.7 -90.6 -3.567
15:06 1027 30.33 857 25.31 3.4 38.1 29 -13.1 8.4 -90.6 -3.567
15:07 1027 30.33 857 25.31 3.5 38.3 29 -13 8.6 -90.6 -3.567
15:08 1027 30.33 856 25.28 3.7 38.6 30 -12.5 9.4 -90.6 -3.567
15:09 1027 30.33 856 25.28 3.9 39 30 -12.4 9.8 -90.6 -3.567
15:10 1027 30.33 856 25.28 4.1 39.3 30 -11.9 10.6 -90.6 -3.567
15:11 1027 30.33 856 25.28 4.2 39.6 29 -12.2 10 -90.6 -3.567
15:12 1027 30.33 856 25.28 4.4 40 28 -12.7 9.1 -90.6 -3.567
15:13 1027 30.33 856 25.28 4.6 40.3 25 -13.6 7.5 -90.6 -3.567
15:14 1027 30.33 856 25.28 4.6 40.2 25 -13.7 7.4 -90.6 -3.567
15:15 1027 30.33 856 25.28 4.6 40.3 26 -13.4 7.8 -90.6 -3.567
15:16 1027 30.33 856 25.28 4.7 40.4 26 -13.4 7.9 -90.5 -3.563
15:17 1027 30.33 856 25.28 4.6 40.2 26 -13.5 7.7 -90.6 -3.567
15:18 1027 30.33 856 25.28 4.3 39.7 26 -13.7 7.3 -90.6 -3.567
15:19 1027 30.33 856 25.28 4 39.1 27 -13.4 7.9 -90.6 -3.567
15:20 1027 30.33 856 25.28 3.9 38.9 28 -13.2 8.3 -90.6 -3.567
15:21 1027 30.33 856 25.28 3.9 39 28 -13 8.7 -90.5 -3.563
15:22 1027 30.33 856 25.28 4 39.2 26 -13.7 7.4 -90.5 -3.563
15:23 1027 30.33 856 25.28 4.1 39.4 28 -13 8.6 -90.5 -3.563
15:24 1027 30.33 856 25.28 4.3 39.7 28 -12.6 9.3 -90.5 -3.563
15:25 1027 30.33 856 25.28 4.4 40 28 -12.7 9.2 -90.5 -3.563
15:26 1027 30.33 856 25.28 4.5 40.1 27 -13 8.7 -90.5 -3.563
15:27 1027 30.33 856 25.28 4.6 40.3 28 -12.6 9.4 -90.5 -3.563
15:28 1027 30.33 856 25.28 4.6 40.3 26 -13.1 8.3 -90.5 -3.563
15:29 1027 30.33 856 25.28 4.6 40.2 27 -12.8 9 -90.5 -3.563
15:30 1027 30.33 856 25.28 4.5 40.2 27 -13 8.5 -90.5 -3.563
15:31 1027 30.33 856 25.28 4.5 40.1 27 -13 8.6 -90.4 -3.559
15:32 1027 30.33 856 25.28 4.5 40 27 -13.1 8.4 -90.5 -3.563
15:33 1027 30.33 856 25.28 4.3 39.7 28 -12.8 8.9 -90.5 -3.563
15:34 1027 30.33 856 25.28 4.3 39.7 27 -12.9 8.8 -90.4 -3.559
15:35 1027 30.33 856 25.28 4.3 39.7 26 -13.6 7.4 -90.4 -3.559
15:36 1027 30.33 856 25.28 4.3 39.7 25 -14.1 6.6 -90.4 -3.559
15:37 1027 30.33 856 25.28 4.2 39.6 25 -14.2 6.4 -90.4 -3.559
15:38 1027 30.33 856 25.28 4 39.3 26 -13.9 6.9 -90.5 -3.563
15:39 1027 30.33 856 25.28 3.9 39 26 -14 6.8 -90.4 -3.559
15:40 1027 30.33 856 25.28 3.8 38.9 26 -14.1 6.6 -90.4 -3.559
15:41 1027 30.33 856 25.28 3.9 38.9 26 -14.2 6.5 -90.4 -3.559
15:42 1027 30.33 856 25.28 3.9 39 25 -14.5 5.9 -90.4 -3.559
15:43 1027 30.33 856 25.28 4 39.1 26 -14.1 6.6 -90.4 -3.559
15:44 1027 30.33 856 25.28 4 39.2 25 -14.5 5.9 -90.4 -3.559
15:45 1027 30.33 856 25.28 4 39.2 25 -14.2 6.4 -90.4 -3.559
15:46 1027 30.33 856 25.28 3.9 39.1 26 -14.1 6.6 -90.4 -3.559
15:47 1027 30.33 856 25.28 4 39.2 26 -13.9 6.9 -90.4 -3.559
15:48 1027 30.33 856 25.28 4.1 39.3 25 -14.3 6.3 -90.4 -3.559
15:49 1027 30.33 856 25.28 4.1 39.3 25 -14.1 6.6 -90.4 -3.559
15:50 1027 30.33 856 25.28 4.1 39.3 26 -14 6.7 -90.4 -3.559
15:51 1027 30.33 856 25.28 4.1 39.3 27 -13.6 7.6 -90.4 -3.559
15:52 1027 30.33 856 25.28 4.1 39.3 27 -13.4 7.9 -90.4 -3.559
15:53 1027 30.33 856 25.28 4 39.2 27 -13.4 7.8 -90.4 -3.559
15:54 1027 30.33 856 25.28 3.9 39 27 -13.6 7.5 -90.4 -3.559
15:55 1027 30.33 856 25.28 3.9 38.9 26 -13.8 7.2 -90.4 -3.559
15:56 1027 30.33 856 25.28 3.8 38.8 28 -13.1 8.4 -90.4 -3.559
15:57 1027 30.33 856 25.28 3.8 38.8 27 -13.8 7.2 -90.4 -3.559
15:58 1027 30.33 856 25.28 3.8 38.8 28 -13.3 8 -90.4 -3.559
15:59 1027 30.33 856 25.28 3.8 38.9 27 -13.7 7.4 -90.4 -3.559
16:00 1027 30.33 856 25.28 3.8 38.9 27 -13.6 7.6 -90.4 -3.559
16:01 1027 30.33 856 25.28 3.8 38.9 26 -14 6.8 -90.4 -3.559
16:02 1027 30.33 856 25.28 3.8 38.9 27 -13.7 7.3 -90.3 -3.555
16:03 1027 30.33 856 25.28 3.9 39.1 26 -13.7 7.3 -90.3 -3.555
16:04 1027 30.33 856 25.28 4 39.1 27 -13.2 8.2 -90.3 -3.555
16:05 1027 30.33 856 25.28 4 39.2 27 -13.4 8 -90.3 -3.555
16:06 1026 30.3 856 25.28 4 39.1 27 -13.5 7.6 -90.3 -3.555
16:07 1027 30.33 856 25.28 3.9 39.1 27 -13.5 7.6 -90.3 -3.555
16:08 1026 30.3 856 25.28 3.9 39 27 -13.5 7.8 -90.3 -3.555
16:09 1026 30.3 856 25.28 4 39.1 27 -13.3 8 -90.3 -3.555
16:10 1026 30.3 856 25.28 4 39.3 27 -13.4 7.9 -90.3 -3.555
16:11 1026 30.3 856 25.28 3.9 39.1 27 -13.3 8 -90.3 -3.555
16:12 1026 30.3 856 25.28 3.9 39.1 27 -13.3 8 -90.2 -3.551
16:13 1026 30.3 856 25.28 3.9 39.1 28 -13 8.5 -90.2 -3.551
16:14 1026 30.3 856 25.28 3.9 39 28 -13.2 8.3 -90.3 -3.555
16:15 1026 30.3 856 25.28 3.8 38.9 28 -13.1 8.4 -90.3 -3.555
16:16 1026 30.3 856 25.28 3.9 39 27 -13.7 7.4 -90.3 -3.555
16:17 1026 30.3 856 25.28 3.9 39 27 -13.4 7.8 -90.3 -3.555
16:18 1026 30.3 855 25.25 3.9 39 28 -13 8.5 -90.3 -3.555
16:19 1026 30.3 855 25.25 3.9 39 27 -13.4 7.8 -90.3 -3.555
16:20 1026 30.3 855 25.25 3.9 38.9 27 -13.5 7.7 -90.3 -3.555
16:21 1026 30.3 855 25.25 3.9 39 29 -12.7 9.1 -90.3 -3.555
16:22 1026 30.3 855 25.25 3.9 39.1 28 -13 8.6 -90.3 -3.555
16:23 1026 30.3 855 25.25 4 39.2 27 -13.4 7.9 -90.2 -3.551
16:24 1026 30.3 855 25.25 4 39.2 26 -13.7 7.3 -90.2 -3.551
16:25 1026 30.3 855 25.25 4.1 39.4 26 -13.6 7.6 -90.2 -3.551
16:26 1026 30.3 855 25.25 4.2 39.5 27 -13.4 7.9 -90.2 -3.551
16:27 1026 30.3 855 25.25 4.2 39.5 27 -13.4 8 -90.2 -3.551
16:28 1026 30.3 855 25.25 4.2 39.5 27 -13.4 7.8 -90.2 -3.551
16:29 1026 30.3 855 25.25 4.1 39.4 26 -13.6 7.6 -90.2 -3.551
16:30 1026 30.3 855 25.25 4 39.2 27 -13.4 8 -90.2 -3.551
16:31 1026 30.3 855 25.25 4 39.2 27 -13.6 7.5 -90.2 -3.551
16:32 1026 30.3 855 25.25 4 39.2 26 -13.7 7.3 -90.2 -3.551
16:33 1026 30.3 855 25.25 4.1 39.3 26 -13.8 7.2 -90.2 -3.551
16:34 1026 30.3 855 25.25 4.2 39.5 26 -13.7 7.4 -90.2 -3.551
16:35 1026 30.3 855 25.25 4.2 39.6 26 -13.5 7.8 -90.2 -3.551
16:36 1026 30.3 855 25.25 4.3 39.7 26 -13.4 7.9 -90.2 -3.551
16:37 1026 30.3 855 25.25 4.3 39.8 27 -13.4 8 -90.2 -3.551
16:38 1026 30.3 855 25.25 4.3 39.7 27 -13.1 8.5 -90.2 -3.551
16:39 1026 30.3 855 25.25 4.3 39.8 27 -13 8.6 -90.2 -3.551
16:40 1026 30.3 855 25.25 4.2 39.6 26 -13.6 7.5 -90.2 -3.551
16:41 1026 30.3 855 25.25 4.3 39.7 26 -13.7 7.3 -90.2 -3.551
16:42 1026 30.3 855 25.25 4.4 39.9 26 -13.8 7.2 -90.2 -3.551
16:43 1026 30.3 855 25.25 4.6 40.2 25 -13.7 7.4 -90.2 -3.551
16:44 1026 30.3 855 25.25 4.8 40.7 25 -13.6 7.6 -90.1 -3.547
16:45 1026 30.3 855 25.25 5.1 41.1 24 -13.7 7.3 -90.1 -3.547
16:46 1026 30.3 855 25.25 5.2 41.3 24 -13.7 7.4 -90.1 -3.547
16:47 1026 30.3 855 25.25 5.2 41.3 24 -14 6.9 -90.1 -3.547
16:48 1026 30.3 855 25.25 5.2 41.3 25 -13.3 8 -90.1 -3.547
16:49 1026 30.3 855 25.25 5.1 41.1 25 -13.3 8 -90.1 -3.547
16:50 1026 30.3 855 25.25 5 41 25 -13.5 7.8 -90.1 -3.547
16:51 1026 30.3 855 25.25 4.8 40.7 25 -13.4 7.9 -90.1 -3.547
16:52 1026 30.3 855 25.25 4.7 40.4 26 -13.2 8.2 -90.1 -3.547
16:53 1026 30.3 855 25.25 4.6 40.3 26 -13.2 8.2 -90.1 -3.547
16:54 1026 30.3 855 25.25 4.6 40.3 26 -13.2 8.2 -90.1 -3.547
16:55 1026 30.3 855 25.25 4.6 40.3 26 -13.4 7.9 -90.1 -3.547
16:56 1026 30.3 855 25.25 4.6 40.3 26 -13.3 8 -90.1 -3.547
16:57 1026 30.3 855 25.25 4.7 40.4 26 -13.4 7.9 -90.1 -3.547
16:58 1026 30.3 855 25.25 4.7 40.5 26 -13.4 7.8 -90.1 -3.547
16:59 1026 30.3 855 25.25 4.8 40.7 25 -13.8 7.2 -90.1 -3.547
17:00 1026 30.3 855 25.25 4.9 40.9 24 -13.8 7.2 -90.1 -3.547
17:01 1026 30.3 855 25.25 5 41.1 24 -13.8 7.2 -90.1 -3.547
17:02 1026 30.3 855 25.25 5.1 41.3 24 -13.8 7.2 -90 -3.543
17:03 1026 30.3 855 25.25 5.2 41.4 24 -13.8 7.2 -90 -3.543
17:04 1026 30.3 855 25.25 5.2 41.4 24 -13.9 7 -89.9 -3.539
17:05 1026 30.3 855 25.25 5.3 41.5 24 -13.6 7.5 -89.9 -3.539
17:06 1026 30.3 855 25.25 5.3 41.5 26 -12.9 8.7 -89.9 -3.539
17:07 1026 30.3 855 25.25 5 41 27 -12.7 9.2 -89.9 -3.539
17:08 1026 30.3 855 25.25 4.8 40.6 26 -13.1 8.4 -90 -3.543
17:09 1026 30.3 855 25.25 4.5 40.1 27 -12.8 9 -90 -3.543
17:10 1026 30.3 855 25.25 4.3 39.8 27 -13 8.6 -90 -3.543
17:11 1026 30.3 855 25.25 4.2 39.5 27 -13.3 8.1 -90 -3.543
17:12 1026 30.3 855 25.25 4.1 39.4 27 -13.3 8 -90.1 -3.547
17:13 1026 30.3 855 25.25 4 39.3 28 -13.1 8.4 -90.1 -3.547
17:14 1026 30.3 855 25.25 4 39.2 27 -13.3 8.1 -90.1 -3.547
17:15 1026 30.3 855 25.25 4 39.1 28 -13.1 8.5 -90.1 -3.547
17:16 1026 30.3 855 25.25 3.9 39.1 28 -12.9 8.7 -90.1 -3.547
17:17 1026 30.3 855 25.25 3.9 39 28 -13.2 8.3 -90.1 -3.547
17:18 1026 30.3 855 25.25 3.9 38.9 28 -12.9 8.8 -90.1 -3.547
17:19 1026 30.3 855 25.25 3.8 38.9 29 -12.7 9.1 -90.1 -3.547
17:20 1026 30.3 855 25.25 3.9 38.9 29 -12.8 9 -90.2 -3.551
17:21 1026 30.3 855 25.25 3.8 38.9 29 -12.7 9.1 -90.2 -3.551
17:22 1026 30.3 855 25.25 3.9 39 30 -12.3 9.8 -90.2 -3.551
17:23 1026 30.3 855 25.25 3.9 39.1 30 -12.3 9.8 -90.2 -3.551
17:24 1026 30.3 855 25.25 4 39.2 29 -12.5 9.5 -90.2 -3.551
17:25 1026 30.3 855 25.25 4 39.1 29 -12.6 9.4 -90.2 -3.551
17:26 1026 30.3 855 25.25 3.9 39.1 29 -12.5 9.5 -90.1 -3.547
17:27 1026 30.3 855 25.25 3.9 39.1 29 -12.5 9.6 -90.1 -3.547
17:28 1026 30.3 855 25.25 3.9 39 30 -12.3 9.9 -90.1 -3.547
17:29 1025 30.27 855 25.25 3.9 39 30 -12.2 10.1 -90.1 -3.547
17:30 1025 30.27 855 25.25 3.8 38.8 30 -12.1 10.2 -90.1 -3.547
17:31 1025 30.27 855 25.25 3.7 38.7 30 -12.3 9.9 -90.1 -3.547
17:32 1025 30.27 855 25.25 3.6 38.5 30 -12.5 9.6 -90.2 -3.551
17:33 1025 30.27 855 25.25 3.5 38.4 30 -12.4 9.7 -90.2 -3.551
17:34 1025 30.27 855 25.25 3.4 38.2 31 -12.3 9.8 -90.2 -3.551
17:35 1025 30.27 855 25.25 3.4 38.1 30 -12.5 9.5 -90.2 -3.551
17:36 1025 30.27 855 25.25 3.3 38 30 -12.5 9.5 -90.2 -3.551
17:37 1025 30.27 855 25.25 3.3 37.9 30 -12.7 9.1 -90.2 -3.551
17:38 1025 30.27 855 25.25 3.2 37.8 29 -13.1 8.4 -90.2 -3.551
17:39 1025 30.27 855 25.25 3.2 37.7 32 -12.1 10.3 -90.2 -3.551
17:40 1025 30.27 855 25.25 3 37.5 32 -12.3 9.8 -90.2 -3.551
17:41 1025 30.27 855 25.25 2.9 37.2 30 -13 8.7 -90.2 -3.551
17:42 1025 30.27 855 25.25 2.9 37.2 30 -13.3 8.1 -90.3 -3.555
17:43 1025 30.27 855 25.25 2.9 37.1 29 -13.4 7.9 -90.3 -3.555
17:44 1025 30.27 855 25.25 2.8 37.1 31 -12.9 8.8 -90.3 -3.555
17:45 1025 30.27 855 25.25 2.7 36.9 31 -12.9 8.7 -90.3 -3.555
17:46 1025 30.27 855 25.25 2.7 36.8 31 -13 8.6 -90.4 -3.559
17:47 1025 30.27 855 25.25 2.6 36.6 31 -12.8 8.9 -90.4 -3.559
17:48 1025 30.27 855 25.25 2.5 36.5 31 -13 8.7 -90.4 -3.559
17:49 1025 30.27 855 25.25 2.5 36.5 31 -13.1 8.4 -90.4 -3.559
17:50 1025 30.27 855 25.25 2.4 36.3 31 -12.9 8.8 -90.4 -3.559
17:51 1025 30.27 855 25.25 2.3 36.2 31 -13 8.6 -90.4 -3.559
17:52 1025 30.27 855 25.25 2.2 36 32 -12.9 8.8 -90.4 -3.559
17:53 1025 30.27 855 25.25 2.1 35.9 32 -12.9 8.8 -90.4 -3.559
17:54 1025 30.27 855 25.25 2.1 35.7 33 -12.7 9.1 -90.5 -3.563
17:55 1025 30.27 854 25.22 2 35.5 32 -13 8.6 -90.5 -3.563
17:56 1025 30.27 855 25.25 2 35.5 33 -12.8 8.9 -90.5 -3.563
17:57 1025 30.27 855 25.25 1.8 35.3 32 -13 8.6 -90.5 -3.563
17:58 1025 30.27 854 25.22 1.8 35.2 33 -13 8.6 -90.6 -3.567
17:59 1025 30.27 855 25.25 1.7 35.1 33 -13.1 8.5 -90.6 -3.567
18:00 1025 30.27 855 25.25 1.7 35 35 -12.3 9.8 -90.6 -3.567
18:01 1025 30.27 854 25.22 1.5 34.7 34 -12.7 9.2 -90.6 -3.567
18:02 1025 30.27 854 25.22 1.3 34.4 35 -12.4 9.7 -90.6 -3.567
18:03 1025 30.27 854 25.22 1.2 34.2 35 -12.5 9.5 -90.6 -3.567
18:04 1025 30.27 854 25.22 1 33.7 38 -11.7 10.9 -90.7 -3.571
18:05 1025 30.27 854 25.22 0.6 33.1 38 -12.1 10.2 -90.7 -3.571
18:06 1025 30.27 854 25.22 0.5 32.9 39 -12 10.4 -90.7 -3.571
18:07 1025 30.27 854 25.22 0.5 32.8 38 -12.1 10.2 -90.7 -3.571
18:08 1025 30.27 854 25.22 0.4 32.8 38 -12.3 9.9 -90.8 -3.575
18:09 1025 30.27 854 25.22 0.5 32.9 37 -12.5 9.5 -90.8 -3.575
18:10 1025 30.27 854 25.22 0.7 33.2 37 -12.3 9.8 -90.8 -3.575
18:11 1025 30.27 854 25.22 0.6 33 38 -12.1 10.2 -90.8 -3.575
18:12 1025 30.27 854 25.22 0.2 32.4 40 -11.8 10.8 -90.8 -3.575
18:13 1025 30.27 854 25.22 -0.2 31.6 42 -11.7 10.9 -90.8 -3.575
18:14 1025 30.27 854 25.22 -0.5 31 42 -12 10.4 -90.8 -3.575
18:15 1025 30.27 854 25.22 -0.6 30.9 41 -12.2 10.1 -90.9 -3.579
18:16 1025 30.27 854 25.22 -0.5 31.1 42 -11.8 10.7 -90.9 -3.579
18:17 1025 30.27 854 25.22 -0.7 30.8 44 -11.4 11.5 -90.9 -3.579
18:18 1025 30.27 854 25.22 -1 30.1 45 -11.6 11.1 -90.9 -3.579
18:19 1025 30.27 854 25.22 -1.2 29.8 46 -11.5 11.2 -91 -3.583
18:20 1025 30.27 854 25.22 -1.3 29.7 47 -11.2 11.8 -91 -3.583
18:21 1025 30.27 854 25.22 -1.4 29.4 46 -11.7 11 -91 -3.583
18:22 1025 30.27 854 25.22 -1.3 29.7 46 -11.4 11.5 -91 -3.583
18:23 1025 30.27 854 25.22 -1.4 29.5 49 -10.9 12.4 -91 -3.583
18:24 1025 30.27 854 25.22 -1.9 28.6 51 -10.7 12.8 -91 -3.583
18:25 1025 30.27 854 25.22 -2.4 27.7 51 -11.1 12 -91.1 -3.587
18:26 1025 30.27 854 25.22 -2.5 27.5 51 -11.3 11.7 -91.1 -3.587
18:27 1025 30.27 854 25.22 -2.6 27.3 53 -10.9 12.4 -91.1 -3.587
18:28 1025 30.27 854 25.22 -2.9 26.8 56 -10.4 13.2 -91.1 -3.587
18:29 1025 30.27 854 25.22 -3.3 26 59 -10.2 13.6 -91.1 -3.587
18:30 1025 30.27 854 25.22 -3.7 25.4 61 -10.1 13.9 -91.1 -3.587
18:31 1025 30.27 854 25.22 -3.9 25 63 -10 14 -91.1 -3.587
18:32 1025 30.27 854 25.22 -4.1 24.7 64 -9.9 14.1 -91.1 -3.587
18:33 1025 30.27 854 25.22 -4.3 24.3 65 -10 14 -91.1 -3.587
18:34 1025 30.27 854 25.22 -4.6 23.7 67 -9.9 14.2 -91.1 -3.587
18:35 1025 30.27 854 25.22 -4.8 23.4 68 -9.9 14.2 -91.1 -3.587
18:36 1025 30.27 854 25.22 -4.8 23.3 69 -9.8 14.4 -91.2 -3.591
18:37 1025 30.27 854 25.22 -4.9 23.2 69 -9.7 14.6 -91.2 -3.591
18:38 1025 30.27 854 25.22 -4.9 23.2 69 -9.7 14.6 -91.2 -3.591
18:39 1025 30.27 854 25.22 -5 23 71 -9.5 14.9 -91.2 -3.591
18:40 1025 30.27 854 25.22 -5.1 22.8 72 -9.4 15 -91.2 -3.591
18:41 1025 30.27 854 25.22 -5.1 22.8 72 -9.4 15.1 -91.2 -3.591
18:42 1025 30.27 854 25.22 -5.1 22.8 72 -9.4 15.1 -91.2 -3.591
18:43 1025 30.27 854 25.22 -5.2 22.7 72 -9.5 15 -91.2 -3.591
18:44 1025 30.27 854 25.22 -5.3 22.5 72 -9.5 15 -91.2 -3.591
18:45 1025 30.27 854 25.22 -5.3 22.5 73 -9.5 15 -91.2 -3.591
18:46 1025 30.27 854 25.22 -5.2 22.7 72 -9.4 15 -91.2 -3.591
18:47 1025 30.27 854 25.22 -5 22.9 72 -9.4 15.1 -91.2 -3.591
18:48 1025 30.27 854 25.22 -4.9 23.2 72 -9.3 15.3 -91.2 -3.591
18:49 1025 30.27 854 25.22 -4.8 23.4 71 -9.2 15.4 -91.2 -3.591
18:50 1025 30.27 854 25.22 -4.7 23.6 71 -9.2 15.5 -91.3 -3.594
18:51 1025 30.27 854 25.22 -4.7 23.6 71 -9.2 15.5 -91.3 -3.594
18:52 1025 30.27 854 25.22 -4.8 23.4 71 -9.2 15.5 -91.3 -3.594
18:53 1025 30.27 854 25.22 -4.7 23.5 71 -9.1 15.5 -91.3 -3.594
18:54 1025 30.27 854 25.22 -4.7 23.6 71 -9.2 15.5 -91.3 -3.594
18:55 1025 30.27 854 25.22 -4.6 23.6 70 -9.2 15.4 -91.3 -3.594
18:56 1025 30.27 854 25.22 -4.7 23.5 71 -9.3 15.3 -91.4 -3.598
18:57 1025 30.27 854 25.22 -4.8 23.4 71 -9.2 15.5 -91.4 -3.598
18:58 1025 30.27 854 25.22 -4.7 23.6 71 -9.1 15.6 -91.4 -3.598
18:59 1025 30.27 854 25.22 -4.5 23.9 71 -9 15.7 -91.4 -3.598
19:00 1025 30.27 854 25.22 -4.4 24.1 70 -9 15.8 -91.4 -3.598
19:01 1025 30.27 854 25.22 -4.2 24.4 70 -9 15.8 -91.4 -3.598
19:02 1025 30.27 854 25.22 -4.1 24.6 69 -9 15.9 -91.4 -3.598
19:03 1025 30.27 854 25.22 -4.1 24.7 69 -9 15.8 -91.4 -3.598
19:04 1025 30.27 854 25.22 -4.2 24.4 69 -9 15.7 -91.4 -3.598
19:05 1025 30.27 854 25.22 -4.4 24.1 70 -9.1 15.7 -91.5 -3.602
19:06 1025 30.27 854 25.22 -4.4 24 70 -9.1 15.7 -91.5 -3.602
19:07 1025 30.27 854 25.22 -4.4 24.1 70 -9.1 15.7 -91.5 -3.602
19:08 1025 30.27 854 25.22 -4.4 24.1 70 -9 15.7 -91.5 -3.602
19:09 1025 30.27 854 25.22 -4.5 23.9 71 -9 15.8 -91.5 -3.602
19:10 1025 30.27 854 25.22 -4.7 23.5 72 -9 15.7 -91.5 -3.602
19:11 1025 30.27 854 25.22 -4.9 23.2 73 -9.1 15.7 -91.5 -3.602
19:12 1025 30.27 854 25.22 -5 22.9 73 -9.1 15.6 -91.5 -3.602
19:13 1025 30.27 854 25.22 -5.2 22.7 73 -9.2 15.5 -91.5 -3.602
19:14 1025 30.27 854 25.22 -5.2 22.6 74 -9.2 15.4 -91.5 -3.602
19:15 1025 30.27 854 25.22 -5.4 22.3 74 -9.3 15.2 -91.6 -3.606
19:16 1025 30.27 854 25.22 -5.5 22.1 74 -9.4 15.1 -91.6 -3.606
19:17 1025 30.27 854 25.22 -5.6 21.9 75 -9.4 15.1 -91.6 -3.606
19:18 1025 30.27 854 25.22 -5.5 22 75 -9.4 15.1 -91.6 -3.606
19:19 1025 30.27 854 25.22 -5.6 21.9 75 -9.4 15 -91.6 -3.606
19:20 1025 30.27 854 25.22 -5.6 22 75 -9.3 15.2 -91.6 -3.606
19:21 1025 30.27 854 25.22 -5.4 22.2 75 -9.2 15.4 -91.6 -3.606
19:22 1025 30.27 854 25.22 -5.3 22.5 74 -9.3 15.3 -91.6 -3.606
19:23 1025 30.27 854 25.22 -5.1 22.8 73 -9.3 15.3 -91.6 -3.606
19:24 1025 30.27 854 25.22 -5 23 72 -9.3 15.3 -91.6 -3.606
19:25 1025 30.27 854 25.22 -5 23.1 72 -9.3 15.2 -91.6 -3.606
19:26 1025 30.27 854 25.22 -5 23 72 -9.3 15.2 -91.6 -3.606
19:27 1025 30.27 854 25.22 -5 23 72 -9.4 15.1 -91.6 -3.606
19:28 1025 30.27 854 25.22 -5 23 72 -9.4 15.1 -91.6 -3.606
19:29 1025 30.27 854 25.22 -5.1 22.8 72 -9.4 15.1 -91.6 -3.606
19:30 1025 30.27 854 25.22 -5.2 22.7 73 -9.4 15.2 -91.7 -3.61
19:31 1025 30.27 854 25.22 -5.2 22.6 73 -9.4 15.1 -91.7 -3.61
19:32 1025 30.27 854 25.22 -5.2 22.6 73 -9.3 15.3 -91.7 -3.61
19:33 1025 30.27 854 25.22 -5.2 22.6 73 -9.3 15.2 -91.7 -3.61
19:34 1025 30.27 854 25.22 -5.3 22.5 73 -9.3 15.3 -91.7 -3.61
19:35 1025 30.27 854 25.22 -5.3 22.4 74 -9.4 15.2 -91.7 -3.61
19:36 1025 30.27 854 25.22 -5.4 22.3 74 -9.4 15.1 -91.7 -3.61
19:37 1025 30.27 854 25.22 -5.4 22.3 73 -9.5 15 -91.7 -3.61
19:38 1025 30.27 854 25.22 -5.5 22 74 -9.5 14.8 -91.7 -3.61
19:39 1025 30.27 854 25.22 -5.7 21.8 74 -9.6 14.7 -91.7 -3.61
19:40 1025 30.27 854 25.22 -6 21.2 75 -9.7 14.5 -91.7 -3.61
19:41 1024 30.24 854 25.22 -6.2 20.8 76 -9.7 14.5 -91.7 -3.61
19:42 1024 30.24 854 25.22 -6.4 20.6 77 -9.8 14.4 -91.8 -3.614
19:43 1024 30.24 854 25.22 -6.3 20.6 77 -9.8 14.4 -91.8 -3.614
19:44 1024 30.24 854 25.22 -6.3 20.6 77 -9.8 14.4 -91.8 -3.614
19:45 1024 30.24 854 25.22 -6.4 20.6 77 -9.8 14.3 -91.8 -3.614
19:46 1024 30.24 854 25.22 -6.4 20.5 77 -9.8 14.4 -91.8 -3.614
19:47 1024 30.24 854 25.22 -6.4 20.5 77 -9.8 14.4 -91.8 -3.614
19:48 1024 30.24 854 25.22 -6.4 20.5 78 -9.7 14.6 -91.8 -3.614
19:49 1024 30.24 854 25.22 -6.3 20.7 77 -9.7 14.5 -91.8 -3.614
19:50 1024 30.24 854 25.22 -6.2 20.9 76 -9.7 14.5 -91.8 -3.614
19:51 1024 30.24 853 25.19 -6 21.1 75 -9.8 14.4 -91.8 -3.614
19:52 1024 30.24 853 25.19 -5.8 21.5 74 -9.7 14.5 -91.8 -3.614
19:53 1024 30.24 853 25.19 -5.8 21.6 74 -9.7 14.5 -91.8 -3.614
19:54 1024 30.24 853 25.19 -5.8 21.5 74 -9.7 14.5 -91.8 -3.614
19:55 1024 30.24 853 25.19 -5.9 21.4 75 -9.7 14.5 -91.8 -3.614
19:56 1024 30.24 853 25.19 -5.9 21.3 75 -9.7 14.6 -91.9 -3.618
19:57 1024 30.24 853 25.19 -5.7 21.7 74 -9.6 14.7 -91.9 -3.618
19:58 1024 30.24 853 25.19 -5.5 22.1 73 -9.5 14.8 -91.9 -3.618
19:59 1024 30.24 853 25.19 -5.3 22.5 72 -9.5 14.9 -91.9 -3.618
20:00 1024 30.24 853 25.19 -5.3 22.5 72 -9.5 14.9 -91.9 -3.618
20:01 1024 30.24 853 25.19 -5.3 22.5 73 -9.5 14.9 -91.9 -3.618
20:02 1024 30.24 853 25.19 -5.3 22.5 73 -9.4 15 -91.9 -3.618
20:03 1024 30.24 853 25.19 -5.3 22.5 72 -9.5 14.9 -91.9 -3.618
20:04 1024 30.24 853 25.19 -5.5 22.1 73 -9.7 14.6 -91.9 -3.618
20:05 1024 30.24 853 25.19 -5.7 21.7 74 -9.7 14.5 -91.9 -3.618
20:06 1024 30.24 853 25.19 -5.8 21.5 74 -9.8 14.4 -91.9 -3.618
20:07 1024 30.24 853 25.19 -5.9 21.3 74 -9.8 14.3 -91.9 -3.618
20:08 1024 30.24 853 25.19 -5.8 21.5 74 -9.8 14.4 -92 -3.622
20:09 1024 30.24 853 25.19 -5.6 21.9 73 -9.8 14.3 -92 -3.622
20:10 1024 30.24 853 25.19 -5.5 22.1 73 -9.7 14.6 -92 -3.622
20:11 1024 30.24 853 25.19 -5.3 22.4 72 -9.6 14.7 -92 -3.622
20:12 1024 30.24 853 25.19 -5.3 22.5 71 -9.8 14.4 -92 -3.622
20:13 1024 30.24 853 25.19 -5.3 22.4 70 -9.9 14.2 -92 -3.622
20:14 1024 30.24 853 25.19 -5.4 22.3 70 -10 14.1 -92 -3.622
20:15 1024 30.24 853 25.19 -5.5 22 71 -10 14 -92 -3.622
20:16 1024 30.24 853 25.19 -5.7 21.8 72 -10.1 13.9 -92 -3.622
20:17 1024 30.24 853 25.19 -5.7 21.7 71 -10.2 13.7 -92 -3.622
20:18 1024 30.24 853 25.19 -5.7 21.7 71 -10.2 13.6 -92 -3.622
20:19 1024 30.24 853 25.19 -5.7 21.8 71 -10.2 13.7 -92 -3.622
20:20 1024 30.24 853 25.19 -5.7 21.8 71 -10.2 13.6 -92 -3.622
20:21 1024 30.24 853 25.19 -5.8 21.6 71 -10.2 13.6 -92 -3.622
20:22 1024 30.24 853 25.19 -5.9 21.5 71 -10.3 13.5 -92 -3.622
20:23 1024 30.24 853 25.19 -6 21.2 72 -10.2 13.6 -92 -3.622
20:24 1024 30.24 853 25.19 -6 21.2 71 -10.4 13.3 -92 -3.622
20:25 1024 30.24 853 25.19 -5.8 21.6 71 -10.3 13.4 -92.1 -3.626
20:26 1024 30.24 853 25.19 -5.6 21.9 70 -10.3 13.4 -92.1 -3.626
20:27 1024 30.24 853 25.19 -5.5 22.1 69 -10.3 13.4 -92.1 -3.626
20:28 1024 30.24 853 25.19 -5.3 22.5 68 -10.3 13.5 -92.1 -3.626
20:29 1024 30.24 853 25.19 -5.2 22.6 68 -10.3 13.4 -92.1 -3.626
20:30 1024 30.24 853 25.19 -5.3 22.5 67 -10.4 13.3 -92.1 -3.626
20:31 1024 30.24 853 25.19 -5.3 22.5 67 -10.4 13.2 -92.1 -3.626
20:32 1024 30.24 853 25.19 -5.1 22.8 66 -10.5 13.1 -92.1 -3.626
20:33 1024 30.24 853 25.19 -5 23.1 65 -10.6 12.9 -92.1 -3.626
20:34 1024 30.24 853 25.19 -4.9 23.2 65 -10.5 13.1 -92.1 -3.626
20:35 1024 30.24 853 25.19 -5 23.1 64 -10.7 12.8 -92.1 -3.626
20:36 1024 30.24 853 25.19 -4.9 23.2 64 -10.6 12.9 -92.1 -3.626
20:37 1024 30.24 853 25.19 -4.9 23.1 64 -10.7 12.8 -92.1 -3.626
20:38 1024 30.24 853 25.19 -4.9 23.3 64 -10.7 12.8 -92.1 -3.626
20:39 1024 30.24 853 25.19 -4.7 23.5 63 -10.7 12.7 -92.1 -3.626
20:40 1024 30.24 853 25.19 -4.6 23.7 62 -10.8 12.6 -92.2 -3.63
20:41 1024 30.24 853 25.19 -4.7 23.6 63 -10.7 12.8 -92.2 -3.63
20:42 1024 30.24 853 25.19 -4.8 23.3 64 -10.6 13 -92.2 -3.63
20:43 1024 30.24 853 25.19 -5.1 22.9 66 -10.6 13 -92.2 -3.63
20:44 1024 30.24 853 25.19 -5.3 22.4 66 -10.6 12.8 -92.2 -3.63
20:45 1024 30.24 853 25.19 -5.4 22.2 67 -10.7 12.8 -92.2 -3.63
20:46 1024 30.24 853 25.19 -5.3 22.4 66 -10.7 12.7 -92.2 -3.63
20:47 1024 30.24 853 25.19 -5.1 22.8 65 -10.8 12.6 -92.2 -3.63
20:48 1024 30.24 853 25.19 -5 23 64 -10.9 12.4 -92.2 -3.63
20:49 1024 30.24 853 25.19 -4.8 23.4 62 -10.9 12.4 -92.2 -3.63
20:50 1024 30.24 853 25.19 -4.6 23.7 62 -10.8 12.6 -92.2 -3.63
20:51 1024 30.24 853 25.19 -4.7 23.6 63 -10.7 12.7 -92.2 -3.63
20:52 1024 30.24 853 25.19 -4.7 23.6 63 -10.7 12.7 -92.2 -3.63
20:53 1024 30.24 853 25.19 -4.6 23.7 62 -10.8 12.5 -92.2 -3.63
20:54 1024 30.24 853 25.19 -4.4 24.1 61 -10.8 12.6 -92.3 -3.634
20:55 1024 30.24 853 25.19 -4.2 24.4 60 -10.8 12.6 -92.3 -3.634
20:56 1024 30.24 853 25.19 -4 24.8 59 -10.8 12.6 -92.3 -3.634
20:57 1024 30.24 853 25.19 -3.8 25.1 59 -10.8 12.6 -92.3 -3.634
20:58 1024 30.24 853 25.19 -3.7 25.4 58 -10.8 12.5 -92.3 -3.634
20:59 1024 30.24 853 25.19 -3.6 25.6 57 -10.8 12.5 -92.3 -3.634
21:00 1024 30.24 853 25.19 -3.5 25.7 57 -10.8 12.6 -92.3 -3.634
21:01 1024 30.24 853 25.19 -3.5 25.7 57 -10.8 12.5 -92.3 -3.634
21:02 1024 30.24 853 25.19 -3.5 25.7 57 -10.9 12.4 -92.3 -3.634
21:03 1024 30.24 853 25.19 -3.4 25.9 56 -10.9 12.3 -92.3 -3.634
21:04 1024 30.24 853 25.19 -3.3 26.1 55 -11.1 12 -92.3 -3.634
21:05 1024 30.24 853 25.19 -3.1 26.4 55 -11 12.3 -92.3 -3.634
21:06 1024 30.24 853 25.19 -3.1 26.4 55 -11 12.1 -92.3 -3.634
21:07 1024 30.24 853 25.19 -3 26.6 55 -10.9 12.4 -92.3 -3.634
21:08 1024 30.24 853 25.19 -3 26.7 54 -11 12.1 -92.3 -3.634
21:09 1024 30.24 853 25.19 -2.9 26.7 54 -10.9 12.4 -92.3 -3.634
21:10 1024 30.24 853 25.19 -3 26.5 55 -10.8 12.5 -92.3 -3.634
21:11 1024 30.24 853 25.19 -3.3 26.1 57 -10.7 12.7 -92.3 -3.634
21:12 1024 30.24 853 25.19 -3.6 25.5 57 -10.8 12.5 -92.3 -3.634
21:13 1024 30.24 853 25.19 -3.8 25.2 58 -11 12.3 -92.3 -3.634
21:14 1024 30.24 853 25.19 -3.9 25.1 58 -11 12.3 -92.3 -3.634
21:15 1024 30.24 853 25.19 -4 24.8 59 -10.9 12.3 -92.3 -3.634
21:16 1024 30.24 853 25.19 -4 24.7 59 -11 12.2 -92.3 -3.634
21:17 1024 30.24 853 25.19 -4.1 24.6 59 -11.1 12.1 -92.3 -3.634
21:18 1024 30.24 853 25.19 -4.2 24.4 59 -11.2 11.9 -92.3 -3.634
21:19 1024 30.24 853 25.19 -4.3 24.3 58 -11.4 11.5 -92.3 -3.634
21:20 1024 30.24 853 25.19 -4.2 24.5 58 -11.3 11.6 -92.3 -3.634
21:21 1024 30.24 853 25.19 -4.1 24.6 57 -11.4 11.5 -92.3 -3.634
21:22 1024 30.24 853 25.19 -4 24.8 56 -11.6 11.1 -92.3 -3.634
21:23 1024 30.24 853 25.19 -3.7 25.3 54 -11.7 11 -92.3 -3.634
21:24 1024 30.24 853 25.19 -3.5 25.7 53 -11.7 11 -92.3 -3.634
21:25 1023 30.21 853 25.19 -3.3 26.1 54 -11.4 11.5 -92.3 -3.634
21:26 1023 30.21 853 25.19 -3.2 26.2 52 -11.7 11 -92.3 -3.634
21:27 1023 30.21 853 25.19 -3.1 26.3 51 -11.8 10.7 -92.3 -3.634
21:28 1023 30.21 853 25.19 -3 26.5 51 -11.8 10.8 -92.3 -3.634
21:29 1023 30.21 853 25.19 -2.9 26.7 50 -11.9 10.5 -92.3 -3.634
21:30 1023 30.21 853 25.19 -2.9 26.8 50 -11.8 10.7 -92.3 -3.634
21:31 1023 30.21 853 25.19 -2.8 26.9 50 -11.9 10.5 -92.3 -3.634
21:32 1023 30.21 853 25.19 -2.8 27 50 -11.9 10.6 -92.3 -3.634
21:33 1023 30.21 853 25.19 -2.7 27.1 50 -11.8 10.8 -92.3 -3.634
21:34 1023 30.21 852 25.16 -2.7 27.1 50 -11.7 11 -92.3 -3.634
21:35 1023 30.21 852 25.16 -2.8 26.9 51 -11.7 11 -92.3 -3.634
21:36 1023 30.21 852 25.16 -2.9 26.8 50 -11.8 10.7 -92.3 -3.634
21:37 1023 30.21 852 25.16 -2.9 26.8 50 -12 10.5 -92.3 -3.634
21:38 1023 30.21 852 25.16 -2.8 26.9 50 -12 10.4 -92.3 -3.634
21:39 1023 30.21 852 25.16 -2.7 27.2 49 -11.9 10.6 -92.3 -3.634
21:40 1023 30.21 852 25.16 -2.6 27.3 48 -12.1 10.2 -92.3 -3.634
21:41 1023 30.21 852 25.16 -2.6 27.4 49 -12 10.5 -92.3 -3.634
21:42 1023 30.21 852 25.16 -2.6 27.3 49 -11.9 10.6 -92.3 -3.634
21:43 1023 30.21 852 25.16 -2.6 27.4 48 -12.1 10.2 -92.3 -3.634
21:44 1023 30.21 852 25.16 -2.5 27.4 47 -12.3 9.9 -92.3 -3.634
21:45 1023 30.21 852 25.16 -2.5 27.6 47 -12.3 9.9 -92.3 -3.634
21:46 1023 30.21 852 25.16 -2.4 27.7 46 -12.4 9.6 -92.3 -3.634
21:47 1023 30.21 852 25.16 -2.3 27.8 46 -12.5 9.4 -92.3 -3.634
21:48 1023 30.21 852 25.16 -2.2 28 45 -12.5 9.5 -92.3 -3.634
21:49 1023 30.21 852 25.16 -2.2 28.1 46 -12.4 9.7 -92.4 -3.638
21:50 1023 30.21 852 25.16 -2.1 28.1 46 -12.2 10 -92.4 -3.638
21:51 1023 30.21 853 25.19 -2.2 28.1 46 -12.2 10 -92.4 -3.638
21:52 1023 30.21 852 25.16 -2.2 28.1 45 -12.5 9.5 -92.4 -3.638
21:53 1023 30.21 852 25.16 -2.1 28.2 45 -12.5 9.5 -92.4 -3.638
21:54 1023 30.21 852 25.16 -2.1 28.3 45 -12.5 9.6 -92.4 -3.638
21:55 1023 30.21 852 25.16 -2 28.3 45 -12.5 9.6 -92.4 -3.638
21:56 1023 30.21 852 25.16 -2.1 28.3 45 -12.4 9.6 -92.3 -3.634
21:57 1023 30.21 852 25.16 -2.2 28.1 45 -12.7 9.2 -92.3 -3.634
21:58 1023 30.21 852 25.16 -2.2 28.1 44 -12.7 9.1 -92.4 -3.638
21:59 1023 30.21 852 25.16 -2.2 28.1 44 -12.9 8.8 -92.3 -3.634
22:00 1023 30.21 852 25.16 -2.2 28 44 -12.8 8.9 -92.3 -3.634
22:01 1023 30.21 852 25.16 -2.2 28 44 -12.9 8.8 -92.3 -3.634
22:02 1023 30.21 852 25.16 -2.3 27.9 45 -12.6 9.4 -92.3 -3.634
22:03 1023 30.21 852 25.16 -2.6 27.4 46 -12.6 9.4 -92.3 -3.634
22:04 1023 30.21 852 25.16 -2.9 26.8 47 -12.7 9.1 -92.3 -3.634
22:05 1023 30.21 852 25.16 -3 26.6 47 -12.7 9.1 -92.3 -3.634
22:06 1023 30.21 852 25.16 -3.1 26.5 48 -12.7 9.1 -92.3 -3.634
22:07 1023 30.21 852 25.16 -3.1 26.5 46 -13.1 8.5 -92.3 -3.634
22:08 1023 30.21 852 25.16 -3 26.7 45 -13.2 8.3 -92.3 -3.634
22:09 1023 30.21 852 25.16 -2.8 27 44 -13.3 8 -92.3 -3.634
22:10 1023 30.21 852 25.16 -2.6 27.4 45 -13 8.5 -92.3 -3.634
22:11 1023 30.21 852 25.16 -2.6 27.4 44 -13.1 8.4 -92.3 -3.634
22:12 1023 30.21 852 25.16 -2.5 27.4 45 -13 8.6 -92.3 -3.634
22:13 1023 30.21 852 25.16 -2.6 27.4 45 -13 8.6 -92.3 -3.634
22:14 1023 30.21 852 25.16 -2.6 27.4 44 -13.1 8.3 -92.3 -3.634
22:15 1023 30.21 852 25.16 -2.5 27.5 44 -13.1 8.5 -92.3 -3.634
22:16 1023 30.21 852 25.16 -2.5 27.6 44 -13.1 8.5 -92.4 -3.638
22:17 1023 30.21 852 25.16 -2.5 27.5 44 -13.2 8.3 -92.4 -3.638
22:18 1023 30.21 852 25.16 -2.4 27.7 44 -13 8.6 -92.3 -3.634
22:19 1023 30.21 852 25.16 -2.4 27.7 45 -12.9 8.8 -92.3 -3.634
22:20 1023 30.21 852 25.16 -2.4 27.6 45 -12.8 9 -92.3 -3.634
22:21 1023 30.21 852 25.16 -2.5 27.5 45 -12.8 9 -92.4 -3.638
22:22 1023 30.21 852 25.16 -2.6 27.4 46 -12.6 9.3 -92.4 -3.638
22:23 1023 30.21 852 25.16 -2.7 27.2 46 -12.7 9.2 -92.4 -3.638
22:24 1023 30.21 852 25.16 -2.7 27.2 44 -13.2 8.2 -92.4 -3.638
22:25 1023 30.21 852 25.16 -2.5 27.5 46 -12.7 9.1 -92.4 -3.638
22:26 1023 30.21 852 25.16 -2.5 27.5 45 -13 8.7 -92.4 -3.638
22:27 1023 30.21 852 25.16 -2.4 27.7 45 -12.9 8.8 -92.4 -3.638
22:28 1023 30.21 852 25.16 -2.3 27.8 45 -12.8 9 -92.4 -3.638
22:29 1023 30.21 852 25.16 -2.3 27.8 45 -12.8 9 -92.4 -3.638
22:30 1023 30.21 852 25.16 -2.3 27.8 44 -13 8.7 -92.4 -3.638
22:31 1023 30.21 852 25.16 -2.2 28 44 -13 8.6 -92.4 -3.638
22:32 1023 30.21 852 25.16 -2.1 28.2 43 -13 8.6 -92.4 -3.638
22:33 1023 30.21 852 25.16 -2.2 28.1 44 -13 8.6 -92.4 -3.638
22:34 1023 30.21 852 25.16 -2.2 28 44 -13 8.6 -92.4 -3.638
22:35 1023 30.21 852 25.16 -2.4 27.7 44 -12.9 8.7 -92.4 -3.638
22:36 1023 30.21 852 25.16 -2.6 27.3 45 -13 8.6 -92.4 -3.638
22:37 1023 30.21 852 25.16 -2.7 27.2 45 -12.9 8.7 -92.4 -3.638
22:38 1023 30.21 852 25.16 -2.7 27.1 46 -12.9 8.7 -92.4 -3.638
22:39 1023 30.21 852 25.16 -2.8 27 45 -13.1 8.3 -92.4 -3.638
22:40 1023 30.21 852 25.16 -2.8 26.9 46 -13 8.5 -92.4 -3.638
22:41 1023 30.21 852 25.16 -2.9 26.8 46 -13 8.6 -92.4 -3.638
22:42 1023 30.21 852 25.16 -2.9 26.8 46 -12.9 8.7 -92.4 -3.638
22:43 1023 30.21 852 25.16 -3 26.5 46 -13 8.6 -92.4 -3.638
22:44 1023 30.21 852 25.16 -3.1 26.4 46 -13.1 8.4 -92.4 -3.638
22:45 1023 30.21 852 25.16 -3.1 26.4 45 -13.4 7.9 -92.4 -3.638
22:46 1022 30.18 852 25.16 -3.1 26.5 45 -13.3 8 -92.4 -3.638
22:47 1022 30.18 852 25.16 -3.1 26.4 45 -13.6 7.5 -92.4 -3.638
22:48 1022 30.18 852 25.16 -3 26.6 44 -13.6 7.6 -92.4 -3.638
22:49 1022 30.18 851 25.13 -2.9 26.8 45 -13.3 8.1 -92.4 -3.638
22:50 1022 30.18 851 25.13 -2.9 26.8 45 -13.1 8.3 -92.4 -3.638
22:51 1022 30.18 851 25.13 -3.1 26.5 46 -13.1 8.5 -92.4 -3.638
22:52 1022 30.18 851 25.13 -3.2 26.3 47 -13 8.7 -92.4 -3.638
22:53 1022 30.18 851 25.13 -3.3 26 47 -13.1 8.3 -92.4 -3.638
22:54 1022 30.18 851 25.13 -3.4 25.9 47 -13.3 8.1 -92.4 -3.638
22:55 1022 30.18 851 25.13 -3.4 25.9 47 -13.2 8.2 -92.4 -3.638
22:56 1022 30.18 851 25.13 -3.3 26.1 46 -13.4 7.9 -92.4 -3.638
22:57 1022 30.18 851 25.13 -3.2 26.2 46 -13.4 8 -92.4 -3.638
22:58 1022 30.18 851 25.13 -3.3 26.1 46 -13.4 7.9 -92.4 -3.638
22:59 1022 30.18 851 25.13 -3.3 26.1 46 -13.4 7.9 -92.4 -3.638
23:00 1022 30.18 851 25.13 -3.2 26.3 45 -13.6 7.5 -92.4 -3.638
23:01 1022 30.18 851 25.13 -3.2 26.3 44 -13.7 7.3 -92.4 -3.638
23:02 1022 30.18 851 25.13 -3.1 26.4 44 -13.7 7.3 -92.4 -3.638
23:03 1022 30.18 851 25.13 -3.1 26.5 45 -13.5 7.7 -92.4 -3.638
23:04 1022 30.18 851 25.13 -3.1 26.4 44 -13.7 7.3 -92.4 -3.638
23:05 1022 30.18 851 25.13 -3 26.5 44 -13.7 7.4 -92.4 -3.638
23:06 1022 30.18 851 25.13 -2.9 26.7 43 -13.7 7.3 -92.4 -3.638
23:07 1022 30.18 851 25.13 -2.8 26.9 44 -13.6 7.5 -92.4 -3.638
23:08 1022 30.18 851 25.13 -2.8 26.9 44 -13.5 7.7 -92.4 -3.638
23:09 1022 30.18 851 25.13 -3 26.7 44 -13.5 7.8 -92.4 -3.638
23:10 1022 30.18 851 25.13 -2.9 26.8 44 -13.5 7.7 -92.4 -3.638
23:11 1022 30.18 851 25.13 -2.9 26.9 45 -13.3 8.1 -92.4 -3.638
23:12 1022 30.18 851 25.13 -2.9 26.9 45 -13.3 8.1 -92.4 -3.638
23:13 1022 30.18 851 25.13 -2.9 26.8 45 -13.4 8 -92.4 -3.638
23:14 1022 30.18 851 25.13 -2.9 26.8 44 -13.5 7.8 -92.4 -3.638
23:15 1022 30.18 851 25.13 -2.8 26.9 44 -13.5 7.8 -92.4 -3.638
23:16 1022 30.18 851 25.13 -2.8 26.9 44 -13.4 7.9 -92.4 -3.638
23:17 1022 30.18 851 25.13 -2.9 26.8 44 -13.4 7.8 -92.4 -3.638
23:18 1022 30.18 851 25.13 -2.9 26.7 45 -13.3 8 -92.4 -3.638
23:19 1022 30.18 851 25.13 -2.9 26.7 44 -13.7 7.4 -92.4 -3.638
23:20 1022 30.18 851 25.13 -2.9 26.8 43 -13.9 7 -92.4 -3.638
23:21 1022 30.18 851 25.13 -2.8 27 43 -13.6 7.5 -92.4 -3.638
23:22 1022 30.18 851 25.13 -2.7 27.1 43 -13.8 7.2 -92.4 -3.638
23:23 1022 30.18 851 25.13 -2.7 27.2 41 -14.1 6.6 -92.4 -3.638
23:24 1022 30.18 851 25.13 -2.6 27.4 42 -13.9 7 -92.4 -3.638
23:25 1022 30.18 851 25.13 -2.6 27.3 43 -13.7 7.4 -92.4 -3.638
23:26 1022 30.18 851 25.13 -2.7 27.1 43 -13.6 7.6 -92.4 -3.638
23:27 1022 30.18 851 25.13 -3 26.7 45 -13.3 8.1 -92.4 -3.638
23:28 1022 30.18 851 25.13 -3.2 26.2 46 -13.3 8.1 -92.4 -3.638
23:29 1022 30.18 851 25.13 -3.4 25.9 46 -13.4 7.9 -92.4 -3.638
23:30 1022 30.18 851 25.13 -3.5 25.6 47 -13.4 7.9 -92.4 -3.638
23:31 1022 30.18 851 25.13 -3.6 25.4 47 -13.5 7.8 -92.4 -3.638
23:32 1022 30.18 851 25.13 -3.8 25.2 48 -13.4 8 -92.4 -3.638
23:33 1022 30.18 851 25.13 -3.9 25 48 -13.3 8.1 -92.4 -3.638
23:34 1022 30.18 851 25.13 -4.1 24.7 50 -13.1 8.4 -92.4 -3.638
23:35 1022 30.18 851 25.13 -4.2 24.5 49 -13.3 8.1 -92.4 -3.638
23:36 1022 30.18 851 25.13 -4.2 24.5 49 -13.5 7.8 -92.4 -3.638
23:37 1022 30.18 851 25.13 -4.2 24.5 49 -13.4 7.8 -92.4 -3.638
23:38 1022 30.18 851 25.13 -4.2 24.5 49 -13.5 7.7 -92.4 -3.638
23:39 1022 30.18 851 25.13 -4.2 24.4 49 -13.4 7.9 -92.4 -3.638
23:40 1022 30.18 851 25.13 -4.3 24.3 49 -13.5 7.7 -92.4 -3.638
23:41 1022 30.18 851 25.13 -4.3 24.3 49 -13.4 7.8 -92.4 -3.638
23:42 1022 30.18 851 25.13 -4.3 24.3 48 -13.6 7.5 -92.4 -3.638
23:43 1022 30.18 851 25.13 -4.2 24.4 49 -13.3 8 -92.4 -3.638
23:44 1022 30.18 851 25.13 -4.3 24.2 50 -13.1 8.3 -92.4 -3.638
23:45 1022 30.18 851 25.13 -4.5 23.9 52 -13 8.5 -92.4 -3.638
23:46 1022 30.18 851 25.13 -4.7 23.6 52 -13.1 8.5 -92.4 -3.638
23:47 1022 30.18 851 25.13 -4.7 23.5 52 -13.2 8.3 -92.4 -3.638
23:48 1022 30.18 851 25.13 -4.7 23.5 51 -13.3 8 -92.4 -3.638
23:49 1022 30.18 851 25.13 -4.7 23.6 50 -13.6 7.6 -92.4 -3.638
23:50 1022 30.18 851 25.13 -4.4 24 48 -14 6.8 -92.4 -3.638
23:51 1022 30.18 851 25.13 -4.1 24.6 47 -13.8 7.1 -92.4 -3.638
23:52 1022 30.18 851 25.13 -3.9 25 46 -14 6.9 -92.4 -3.638
23:53 1021 30.15 851 25.13 -3.7 25.4 45 -14 6.7 -92.4 -3.638
23:54 1021 30.15 851 25.13 -3.4 25.8 43 -14.2 6.4 -92.4 -3.638
23:55 1021 30.15 851 25.13 -3.3 26.1 44 -13.9 6.9 -92.4 -3.638
23:56 1021 30.15 851 25.13 -3.2 26.2 43 -14 6.8 -92.5 -3.642
23:57 1021 30.15 851 25.13 -3.3 26.1 44 -13.8 7.2 -92.5 -3.642
23:58 1021 30.15 851 25.13 -3.4 25.9 44 -14.1 6.7 -92.5 -3.642
23:59 1021 30.15 851 25.13 -3.4 25.8 44 -14 6.7 -92.5 -3.642
24:00 1021 30.15 851 25.13 -3.5 25.6 44 -14 6.8 -92.5 -3.642